• Join FlightAware (Why Join?)
  • Login
  • US Flag 
07:24PM EDT


 

Airport Tracker/Info


-or-


 

Live Flight TrackerFlight Track Log ✈ N774LA ✈ 14-Apr-2013 ✈ EHAM / AMS - SCEL / SCL

Flight Track Log - Related Links

Times and Time Zones

All times are in EDT time to prevent confusion due to time zone crossing. See the N774LA flight status page for this flight to view local times or setup timezone preferences in your user account.

Time Position Orientation Groundspeed Altitude Reporting Facility
EDT Latitude Longitude Course Direction KTS MPH feet Rate Location/Type
02:49PM 49.6180 5.6290 264° West 454 522 29,000  Level FlightAware
02:49PM 49.6080 5.4790 264° West 455 524 29,000  Level FlightAware
02:50PM 49.5990 5.3380 264° West 457 526 29,000  Level FlightAware
02:51PM 49.5860 5.1880 262° West 455 524 29,000  Level FlightAware
02:51PM 49.5650 5.0620 256° West 455 524 29,000  Level FlightAware
02:52PM 49.5480 4.9680 254° West 453 521 29,000  Level FlightAware
02:53PM 49.5280 4.8550 255° West 452 520 29,000  Level FlightAware
02:53PM 49.5030 4.7200 254° West 452 520 29,000  Level FlightAware
02:54PM 49.4800 4.5940 254° West 454 522 29,000  Level FlightAware
02:55PM 49.4550 4.4540 255° West 454 522 29,000  Level FlightAware
02:55PM 49.4330 4.3270 255° West 454 522 29,000  Level FlightAware
02:56PM 49.4120 4.1870 257° West 455 524 29,000  Level FlightAware
02:57PM 49.3950 4.0610 258° West 453 521 29,000  Level FlightAware
02:57PM 49.3800 3.9500 258° West 454 522 29,000  Level FlightAware
02:58PM 49.3590 3.7970 258° West 453 521 29,000  Level FlightAware
02:59PM 49.3410 3.6690 258° West 453 521 29,000  Level FlightAware
03:00PM 49.3220 3.5400 257° West 453 521 29,000  Level FlightAware
03:00PM 49.3030 3.4080 258° West 454 522 29,000  Level FlightAware
03:01PM 49.2830 3.2660 258° West 452 520 29,000  Level FlightAware
03:02PM 49.2640 3.1370 257° West 453 521 29,000  Level FlightAware
03:02PM 49.2460 3.0150 257° West 452 520 29,000  Level FlightAware
03:03PM 49.2150 2.8790 251° West 447 514 29,000  Level FlightAware
03:04PM 49.1770 2.7690 242° Southwest 442 509 29,000  Level FlightAware
03:04PM 49.1648 2.7349 241° Southwest 441 507 29,000  Level FlightAware ADS-B
03:04PM 49.1348 2.6523 241° Southwest 440 506 29,000  Level FlightAware ADS-B
03:05PM 49.0940 2.5410 241° Southwest 439 505 29,000  Level FlightAware
03:06PM 49.0667 2.4671 241° Southwest 441 507 29,000  Level FlightAware ADS-B
03:06PM 49.0301 2.3679 241° Southwest 441 507 29,000  Level FlightAware ADS-B
03:07PM 48.9998 2.2862 241° Southwest 440 506 29,000 -2,100 Level FlightAware ADS-B
03:07PM 48.9837 2.2454 241° Southwest 494 568 27,400 -1,800 Descending FlightAware UK
03:08PM 48.9476 2.1480 241° Southwest 496 571 27,500 2,040 Climbing FlightAware UK
03:08PM 48.9368 2.1168 241° Southwest 442 509 29,000  Climbing FlightAware ADS-B
03:08PM 48.9178 2.0671 241° Southwest 496 571 27,500 -2,160 Descending FlightAware UK
03:08PM 48.8947 2.0028 241° Southwest 496 571 27,500 2,220 Level FlightAware UK
03:09PM 48.8789 1.9569 241° Southwest 442 509 29,000 1,620 Climbing FlightAware ADS-B
03:09PM 48.8440 1.8630 241° Southwest 442 509 29,000 -1,620 Level FlightAware
03:10PM 48.8235 1.8073 241° Southwest 498 573 27,500 -2,580 Descending FlightAware UK
03:10PM 48.8059 1.7591 241° Southwest 502 578 27,500 3,300 Level FlightAware UK
03:10PM 48.8000 1.7430 241° Southwest 440 506 29,000  Climbing FlightAware
03:11PM 48.7699 1.6623 241° Southwest 498 573 27,500  Descending FlightAware UK
03:11PM 48.7590 1.6310 241° Southwest 436 502 29,000  Climbing FlightAware
03:11PM 48.7402 1.5824 241° Southwest 496 571 27,500 -2,700 Descending FlightAware UK
03:11PM 48.7224 1.5344 241° Southwest 496 571 27,500 3,720 Level FlightAware UK
03:11PM 48.7210 1.5300 241° Southwest 436 502 29,000  Climbing FlightAware
03:12PM 48.6983 1.4701 241° Southwest 498 573 27,500 -2,520 Descending FlightAware UK
03:12PM 48.6806 1.4227 241° Southwest 496 571 27,500 3,300 Level FlightAware UK
03:12PM 48.6770 1.4100 241° Southwest 437 503 29,000  Climbing FlightAware
03:12PM 48.6568 1.3590 241° Southwest 496 571 27,500 -2,760 Descending FlightAware UK
03:13PM 48.6389 1.3112 241° Southwest 496 571 27,500 3,600 Level FlightAware UK
03:13PM 48.6350 1.2990 241° Southwest 437 503 29,000  Climbing FlightAware
03:13PM 48.6152 1.2477 241° Southwest 498 573 27,500 -2,580 Descending FlightAware UK
03:13PM 48.5972 1.1995 241° Southwest 496 571 27,500 3,180 Level FlightAware UK
03:14PM 48.5900 1.1780 241° Southwest 436 502 29,000  Climbing FlightAware
03:14PM 48.5676 1.1208 241° Southwest 496 571 27,500  Descending FlightAware UK
03:14PM 48.5620 1.1040 241° Southwest 435 501 29,000  Climbing FlightAware
03:14PM 48.5379 1.0422 241° Southwest 496 571 27,500 -2,760 Descending FlightAware UK
03:15PM 48.5199 0.9948 240° Southwest 496 571 27,500 2,520 Level FlightAware UK
03:15PM 48.5060 0.9560 240° Southwest 435 501 29,000  Climbing FlightAware
03:15PM 48.4838 0.8999 240° Southwest 496 571 27,500 -2,460 Descending FlightAware UK
03:16PM 48.4657 0.8527 240° Southwest 496 571 27,500 4,260 Level FlightAware UK
03:16PM 48.4660 0.8520 240° Southwest 435 501 29,000  Climbing FlightAware
03:16PM 48.4477 0.8057 240° Southwest 496 571 27,500  Descending FlightAware UK
03:16PM 48.4300 0.7570 240° Southwest 436 502 29,000  Climbing FlightAware
03:17PM 48.4119 0.7113 240° Southwest 496 571 27,500 -2,280 Descending FlightAware UK
03:17PM 48.3876 0.6479 240° Southwest 496 571 27,500 2,640 Level FlightAware UK
03:17PM 48.3800 0.6270 240° Southwest 436 502 29,000  Climbing FlightAware
03:18PM 48.3515 0.5541 240° Southwest 496 571 27,500  Descending FlightAware UK
03:18PM 48.3400 0.5220 240° Southwest 436 502 29,000  Climbing FlightAware
03:18PM 48.3213 0.4760 240° Southwest 496 571 27,500  Descending FlightAware UK
03:19PM 48.2940 0.4050 240° Southwest 437 503 29,000  Climbing FlightAware
03:19PM 48.2725 0.3507 240° Southwest 496 571 27,500  Descending FlightAware UK
03:19PM 48.2550 0.3030 240° Southwest 436 502 29,000 1,440 Climbing FlightAware
03:20PM 48.2140 0.1990 239° Southwest 434 499 29,000  Level FlightAware
03:21PM 48.1670 0.0780 240° Southwest 433 498 29,000  Level FlightAware
03:21PM 48.1260 -0.0250 239° Southwest 433 498 29,000  Level FlightAware
03:22PM 48.0820 -0.1380 240° Southwest 434 499 29,000  Level FlightAware
03:23PM 48.0410 -0.2420 240° Southwest 434 499 29,000  Level FlightAware
03:23PM 48.0000 -0.3430 239° Southwest 436 502 29,000  Level FlightAware
03:24PM 47.9520 -0.4620 239° Southwest 435 501 29,000  Level FlightAware
03:25PM 47.9010 -0.5540 230° Southwest 429 494 29,000  Level FlightAware
03:25PM 47.8400 -0.6300 220° Southwest 429 494 29,000  Level FlightAware
03:26PM 47.7720 -0.7090 218° Southwest 430 495 29,000  Level FlightAware
03:27PM 47.7100 -0.7820 218° Southwest 429 494 29,000  Level FlightAware
03:28PM 47.6470 -0.8560 218° Southwest 429 494 29,000  Level FlightAware
03:28PM 47.5750 -0.9400 218° Southwest 429 494 29,000  Level FlightAware
03:29PM 47.5130 -1.0130 219° Southwest 428 493 29,000  Level FlightAware
03:30PM 47.4440 -1.0930 218° Southwest 430 495 29,000  Level FlightAware
03:30PM 47.3810 -1.1650 218° Southwest 429 494 29,000  Level FlightAware
03:31PM 47.3190 -1.2390 219° Southwest 430 495 29,000  Level FlightAware
03:32PM 47.2480 -1.3230 219° Southwest 430 495 29,000  Level FlightAware
03:32PM 47.1870 -1.3940 218° Southwest 429 494 29,000  Level FlightAware
03:33PM 47.1170 -1.4760 219° Southwest 429 494 29,000  Level FlightAware
03:34PM 47.0560 -1.5470 218° Southwest 429 494 29,000  Level FlightAware
03:35PM 46.9840 -1.6310 219° Southwest 429 494 29,000  Level FlightAware
03:35PM 46.9230 -1.7010 218° Southwest 429 494 29,000  Level FlightAware
03:36PM 46.8600 -1.7730 218° Southwest 429 494 29,000  Level FlightAware
03:37PM 46.7910 -1.8530 218° Southwest 429 494 29,000  Level FlightAware
03:37PM 46.7290 -1.9240 218° Southwest 429 494 29,000  Level FlightAware
03:38PM 46.6670 -1.9950 218° Southwest 427 491 29,000  Level FlightAware
03:39PM 46.5950 -2.0760 218° Southwest 428 493 29,000  Level FlightAware
03:40PM 46.5270 -2.1540 218° Southwest 426 490 29,000  Level FlightAware
03:40PM 46.4640 -2.2250 218° Southwest 426 490 29,000  Level FlightAware
03:41PM 46.4030 -2.2940 218° Southwest 426 490 29,000  Level FlightAware
03:42PM 46.3310 -2.3750 218° Southwest 426 490 29,000  Level FlightAware
03:42PM 46.2690 -2.4440 218° Southwest 427 491 29,000  Level FlightAware
03:43PM 46.2000 -2.5210 218° Southwest 427 491 29,000  Level FlightAware
03:44PM 46.1380 -2.5910 218° Southwest 427 491 29,000  Level FlightAware
03:44PM 46.0850 -2.6490 217° Southwest 428 493 29,000  Level FlightAware
03:45PM 46.0160 -2.7260 218° Southwest 428 493 29,000  Level FlightAware
03:47PM 45.8810 -2.8740 217° Southwest 430 495 29,000  Level FlightAware
03:47PM 45.8270 -2.9330 217° Southwest 430 495 29,000  Level FlightAware
03:48PM 45.7370 -3.0330 218° Southwest 433 498 29,000  Level FlightAware
03:49PM 45.6740 -3.1020 217° Southwest 433 498 29,000  Level FlightAware
03:49PM 45.6100 -3.1710 217° Southwest 433 498 29,000  Level FlightAware
03:50PM 45.5550 -3.2290 216° Southwest 433 498 29,000  Level FlightAware
03:51PM 45.5010 -3.2880 217° Southwest 433 498 29,000  Level FlightAware
03:51PM 45.4470 -3.3460 217° Southwest 433 498 29,000  Level FlightAware
03:52PM 45.3920 -3.4040 217° Southwest 433 498 29,000  Level FlightAware
03:55PM 45.2160 -3.7162 231° Southwest  Level Estimated
03:56PM 45.1440 -3.8431 231° Southwest  Level Estimated
03:57PM 45.0718 -3.9697 231° Southwest  Level Estimated
03:58PM 44.9994 -4.0959 231° Southwest  Level Estimated
03:59PM 44.9270 -4.2218 231° Southwest  Level Estimated
04:00PM 44.8543 -4.3474 231° Southwest  Level Estimated
04:01PM 44.7816 -4.4727 231° Southwest  Level Estimated
04:02PM 44.7087 -4.5977 231° Southwest  Level Estimated
04:03PM 44.6357 -4.7223 231° Southwest  Level Estimated
04:04PM 44.5625 -4.8467 230° Southwest  Level Estimated
04:04PM 44.1640 -4.6480 230° Southwest 436 502 29,000  Level FlightAware
04:05PM 44.0600 -4.7360 211° Southwest 437 503 29,000  Level FlightAware
04:06PM 43.9480 -4.8300 211° Southwest 435 501 29,000  Level FlightAware
04:07PM 43.8700 -4.8950 211° Southwest 433 498 29,000  Level FlightAware
04:08PM 43.8020 -4.9520 211° Southwest 432 497 29,000  Level FlightAware
04:08PM 43.7250 -5.0160 211° Southwest 436 502 29,000  Level FlightAware
04:09PM 43.6560 -5.0740 211° Southwest 434 499 29,000  Level FlightAware
04:10PM 43.5970 -5.1230 211° Southwest 431 496 29,000  Level FlightAware
04:10PM 43.5190 -5.1870 211° Southwest 431 496 29,000  Level FlightAware
04:11PM 43.4340 -5.2600 212° Southwest 433 498 29,000  Level FlightAware
04:12PM 43.3430 -5.3400 213° Southwest 435 501 29,000  Level FlightAware
04:13PM 43.2820 -5.3930 212° Southwest 435 501 29,000  Level FlightAware
04:14PM 43.1960 -5.4670 212° Southwest 436 502 29,000  Level FlightAware
04:14PM 43.1200 -5.5330 212° Southwest 437 503 29,000  Level FlightAware
04:15PM 43.0440 -5.5980 212° Southwest 436 502 29,000  Level FlightAware
04:16PM 42.9690 -5.6620 212° Southwest 436 502 29,000  Level FlightAware
04:16PM 42.8990 -5.7220 212° Southwest 435 501 29,000  Level FlightAware
04:17PM 42.8190 -5.7910 212° Southwest 435 501 29,000  Level FlightAware
04:18PM 42.7020 -5.8860 211° Southwest 434 499 29,000  Level FlightAware
04:19PM 42.6250 -5.9450 209° Southwest 435 501 29,000  Level FlightAware
04:20PM 42.5540 -5.9970 208° Southwest 434 499 29,000  Level FlightAware
04:20PM 42.4830 -6.0500 209° Southwest 435 501 29,000  Level FlightAware
04:21PM 42.4040 -6.1090 209° Southwest 435 501 29,000  Level FlightAware
04:22PM 42.3340 -6.1620 209° Southwest 435 501 29,000  Level FlightAware
04:23PM 42.2550 -6.2200 209° Southwest 435 501 29,000  Level FlightAware
04:23PM 42.1920 -6.2660 208° Southwest 436 502 29,000  Level FlightAware
04:24PM 42.1230 -6.3170 209° Southwest 435 501 29,000  Level FlightAware
04:25PM 42.0440 -6.3760 209° Southwest 436 502 29,000  Level FlightAware
04:25PM 41.9720 -6.4280 208° Southwest 437 503 29,000  Level FlightAware
04:26PM 41.9020 -6.4790 208° Southwest 441 507 29,000  Level FlightAware
04:27PM 41.8250 -6.5470 213° Southwest 441 507 29,000  Level FlightAware
04:27PM 41.7650 -6.6220 223° Southwest 444 511 29,000  Level FlightAware
04:28PM 41.7000 -6.7080 225° Southwest 443 510 29,000  Level FlightAware
04:29PM 41.6420 -6.7830 224° Southwest 444 511 29,000  Level FlightAware
04:29PM 41.5810 -6.8600 223° Southwest 447 514 29,000  Level FlightAware
04:30PM 41.5160 -6.9440 224° Southwest 448 516 29,000  Level FlightAware
04:31PM 41.4550 -7.0220 224° Southwest 451 519 29,000  Level FlightAware
04:32PM 41.3870 -7.1090 224° Southwest 456 525 29,000  Level FlightAware
04:32PM 41.3260 -7.1860 223° Southwest 458 527 29,000  Level FlightAware
04:33PM 41.2660 -7.2630 224° Southwest 456 525 29,000  Level FlightAware
04:34PM 41.1970 -7.3510 224° Southwest 460 529 29,000  Level FlightAware
04:34PM 41.1360 -7.4280 224° Southwest 460 529 29,000  Level FlightAware
04:35PM 41.0690 -7.5120 223° Southwest 463 533 29,000  Level FlightAware
04:36PM 41.0040 -7.5940 224° Southwest 461 531 29,000  Level FlightAware
04:36PM 40.9440 -7.6700 224° Southwest 460 529 29,000  Level FlightAware
04:37PM 40.8730 -7.7590 223° Southwest 462 532 29,000  Level FlightAware
04:38PM 40.8130 -7.8340 223° Southwest 464 534 29,000  Level FlightAware
04:39PM 40.7490 -7.9130 223° Southwest 464 534 29,000  Level FlightAware
04:39PM 40.6790 -8.0000 223° Southwest 463 533 29,000  Level FlightAware
04:40PM 40.6240 -8.0680 223° Southwest 461 531 29,000  Level FlightAware
04:41PM 40.5640 -8.1420 223° Southwest 459 528 29,000  Level FlightAware
04:41PM 40.4980 -8.2240 223° Southwest 459 528 29,000  Level FlightAware
04:42PM 40.4360 -8.3000 223° Southwest 460 529 29,000  Level FlightAware
04:43PM 40.3700 -8.3800 223° Southwest 463 533 29,000  Level FlightAware
04:43PM 40.3090 -8.4550 223° Southwest 466 536 29,000  Level FlightAware
04:44PM 40.2170 -8.5670 223° Southwest 465 535 29,000  Level FlightAware
04:45PM 40.1620 -8.6340 223° Southwest 466 536 29,000  Level FlightAware
04:46PM 40.0830 -8.7290 223° Southwest 463 533 29,000  Level FlightAware
04:47PM 39.9950 -8.8360 223° Southwest 464 534 29,000  Level FlightAware
04:47PM 39.9310 -8.9130 223° Southwest 464 534 29,000  Level FlightAware
04:48PM 39.8590 -8.9990 223° Southwest 464 534 29,000  Level FlightAware
04:49PM 39.7720 -9.1030 223° Southwest 464 534 29,000  Level FlightAware
04:50PM 39.7070 -9.1810 223° Southwest 464 534 29,000  Level FlightAware
04:50PM 39.6360 -9.2650 222° Southwest 462 532 29,000  Level FlightAware
04:51PM 39.5870 -9.3230 222° Southwest 462 532 29,000  Level FlightAware
04:52PM 39.5070 -9.4170 222° Southwest 462 532 29,000  Level FlightAware
04:53PM 39.4110 -9.5300 222° Southwest 459 528 29,000  Level FlightAware
04:53PM 39.3550 -9.5950 222° Southwest 459 528 29,000  Level FlightAware
04:54PM 39.2840 -9.6790 222° Southwest 460 529 29,000  Level FlightAware
04:55PM 39.1950 -9.7820 222° Southwest 465 535 29,000 240 Level FlightAware
04:56PM 39.1240 -9.8660 223° Southwest 461 531 29,400 240 Climbing FlightAware
04:56PM 39.0690 -9.9300 222° Southwest 462 532 29,400  Level FlightAware
04:57PM 38.9930 -10.0170 222° Southwest 463 533 29,400  Level FlightAware
04:58PM 38.9270 -10.0930 222° Southwest 464 534 29,400  Level FlightAware
04:58PM 38.8740 -10.1540 222° Southwest 464 534 29,400 -300 Level FlightAware
04:59PM 38.7890 -10.2520 222° Southwest 457 526 29,000 -300 Descending FlightAware
05:00PM 38.7250 -10.3260 222° Southwest 457 526 29,000  Level FlightAware
05:01PM 38.6620 -10.3980 222° Southwest 457 526 29,000  Level FlightAware
05:01PM 38.6080 -10.4600 222° Southwest 457 526 29,000  Level FlightAware
05:02PM 38.5550 -10.5210 222° Southwest 457 526 29,000  Level FlightAware
05:03PM 38.5010 -10.5830 222° Southwest 457 526 29,000  Level FlightAware
05:03PM 38.4480 -10.6440 222° Southwest 457 526 29,000  Level FlightAware
05:04PM 38.3810 -10.7210 222° Southwest 457 526 29,000 120 Level FlightAware
05:06PM 38.1250 -11.0030 221° Southwest 469 540 29,400 120 Climbing FlightAware
05:07PM 38.0600 -11.0750 221° Southwest 469 540 29,400  Level FlightAware
05:08PM 38.0040 -11.1370 221° Southwest 469 540 29,400  Level FlightAware
05:08PM 37.9490 -11.1980 221° Southwest 469 540 29,400  Level FlightAware
05:09PM 37.8790 -11.2750 221° Southwest 469 540 29,400  Level FlightAware
05:10PM 37.8230 -11.3360 221° Southwest 469 540 29,400  Level FlightAware
05:12PM 37.6805 -11.5221 226° Southwest  Level Estimated
05:13PM 37.6005 -11.6261 226° Southwest  Level Estimated
05:14PM 37.5203 -11.7299 226° Southwest  Level Estimated
05:15PM 37.4401 -11.8335 226° Southwest  Level Estimated
05:16PM 37.3598 -11.9369 226° Southwest  Level Estimated
05:17PM 37.2794 -12.0400 226° Southwest  Level Estimated
05:18PM 37.1989 -12.1430 226° Southwest  Level Estimated
05:19PM 37.1184 -12.2457 225° Southwest  Level Estimated
05:20PM 37.0377 -12.3482 225° Southwest  Level Estimated
05:21PM 36.9570 -12.4504 225° Southwest  Level Estimated
05:22PM 36.8761 -12.5525 225° Southwest  Level Estimated
05:23PM 36.7952 -12.6543 225° Southwest  Level Estimated
05:24PM 36.7142 -12.7559 225° Southwest  Level Estimated
05:25PM 36.6331 -12.8573 225° Southwest  Level Estimated
05:26PM 36.5519 -12.9585 225° Southwest  Level Estimated
05:27PM 36.4706 -13.0595 225° Southwest  Level Estimated
05:28PM 36.3893 -13.1603 225° Southwest  Level Estimated
05:29PM 36.3078 -13.2608 225° Southwest  Level Estimated
05:30PM 36.2263 -13.3612 225° Southwest  Level Estimated
05:31PM 36.1447 -13.4613 225° Southwest  Level Estimated
05:32PM 36.0630 -13.5613 225° Southwest  Level Estimated
05:33PM 35.9813 -13.6610 225° Southwest  Level Estimated
05:34PM 35.8994 -13.7605 225° Southwest  Level Estimated
05:35PM 35.8175 -13.8598 225° Southwest  Level Estimated
05:36PM 35.7354 -13.9589 224° Southwest  Level Estimated
05:37PM 35.6533 -14.0578 224° Southwest  Level Estimated
05:38PM 35.5712 -14.1565 224° Southwest  Level Estimated
05:39PM 35.4889 -14.2550 224° Southwest  Level Estimated
05:40PM 35.4066 -14.3533 224° Southwest  Level Estimated
05:41PM 35.3241 -14.4514 224° Southwest  Level Estimated
05:42PM 35.2416 -14.5493 224° Southwest  Level Estimated
05:43PM 35.1591 -14.6470 224° Southwest  Level Estimated
05:44PM 35.0764 -14.7445 224° Southwest  Level Estimated
05:45PM 34.9937 -14.8418 224° Southwest  Level Estimated
05:46PM 34.9109 -14.9389 224° Southwest  Level Estimated
05:47PM 34.8280 -15.0358 224° Southwest  Level Estimated
05:48PM 34.7450 -15.1325 224° Southwest  Level Estimated
05:49PM 34.6620 -15.2291 224° Southwest  Level Estimated
05:50PM 34.5789 -15.3254 224° Southwest  Level Estimated
05:51PM 34.4957 -15.4215 224° Southwest  Level Estimated
05:51PM 33.5780 -15.6940 224° Southwest 481 554 31,000  Level FlightAware
05:51PM 33.5080 -15.7610 219° Southwest 479 551 31,000  Level FlightAware
05:52PM 34.4124 -15.5175 224° Southwest  Level Estimated
05:52PM 33.4320 -15.8340 219° Southwest 478 550 31,000  Level FlightAware
05:53PM 33.3610 -15.9010 218° Southwest 476 548 31,000  Level FlightAware
05:54PM 33.2910 -15.9680 219° Southwest 476 548 31,000  Level FlightAware
05:54PM 33.2160 -16.0390 218° Southwest 476 548 31,000  Level FlightAware
05:55PM 33.1470 -16.1050 219° Southwest 476 548 31,000  Level FlightAware
05:56PM 33.0710 -16.1760 218° Southwest 473 544 31,000  Level FlightAware
05:56PM 32.9990 -16.2440 218° Southwest 473 544 31,000  Level FlightAware
05:57PM 32.9300 -16.3080 218° Southwest 474 545 31,000  Level FlightAware
05:58PM 32.8540 -16.3800 219° Southwest 474 545 31,000  Level FlightAware
05:58PM 32.7860 -16.4440 218° Southwest 474 545 31,000  Level FlightAware
05:59PM 32.7060 -16.5180 218° Southwest 475 547 31,000  Level FlightAware
06:00PM 32.6360 -16.5830 218° Southwest 477 549 31,000  Level FlightAware
06:00PM 32.5860 -16.6290 218° Southwest 476 548 31,000  Level FlightAware
06:01PM 32.5150 -16.6950 218° Southwest 477 549 31,000  Level FlightAware
06:02PM 32.4370 -16.7670 218° Southwest 479 551 31,000  Level FlightAware
06:02PM 32.3670 -16.8320 218° Southwest 478 550 31,000  Level FlightAware
06:03PM 32.2980 -16.8960 218° Southwest 480 552 31,000  Level FlightAware
06:04PM 32.2160 -16.9710 218° Southwest 480 552 31,000  Level FlightAware
06:05PM 32.1500 -17.0320 218° Southwest 480 552 31,000  Level FlightAware
06:05PM 32.0690 -17.1060 218° Southwest 478 550 31,000  Level FlightAware
06:06PM 32.0130 -17.1560 217° Southwest 478 550 31,000  Level FlightAware
06:07PM 31.9380 -17.2230 217° Southwest 478 550 31,000  Level FlightAware
06:07PM 31.8780 -17.2760 217° Southwest 478 550 31,000  Level FlightAware
06:08PM 31.8180 -17.3290 217° Southwest 478 550 31,000  Level FlightAware
06:09PM 31.7580 -17.3830 217° Southwest 478 550 31,000  Level FlightAware
06:09PM 31.6980 -17.4360 217° Southwest 478 550 31,000  Level FlightAware
06:10PM 31.6220 -17.5020 216° Southwest 478 550 31,000  Level FlightAware
06:11PM 31.5620 -17.5550 217° Southwest 478 550 31,000  Level FlightAware
06:12PM 31.5020 -17.6080 217° Southwest 478 550 31,000  Level FlightAware
06:12PM 31.3350 -17.7250 211° Southwest 479 551 31,000  Level FlightAware
06:13PM 31.2530 -17.7880 213° Southwest 478 550 31,000  Level FlightAware
06:14PM 31.1580 -17.8610 213° Southwest 477 549 31,000  Level FlightAware
06:14PM 31.0800 -17.9200 213° Southwest 475 547 31,000  Level FlightAware
06:15PM 30.9810 -17.9960 213° Southwest 474 545 31,000  Level FlightAware
06:16PM 30.9010 -18.0570 213° Southwest 473 544 31,000  Level FlightAware
06:17PM 30.8340 -18.1070 213° Southwest 474 545 31,000  Level FlightAware
06:17PM 30.7430 -18.1760 213° Southwest 474 545 31,000  Level FlightAware
06:18PM 30.6700 -18.2310 213° Southwest 474 545 31,000  Level FlightAware
06:19PM 30.5950 -18.2880 213° Southwest 476 548 31,000  Level FlightAware
06:20PM 30.5120 -18.3510 213° Southwest 478 550 31,000  Level FlightAware
06:20PM 30.4370 -18.4060 212° Southwest 474 545 31,000  Level FlightAware
06:21PM 30.3620 -18.4620 213° Southwest 475 547 31,000  Level FlightAware
06:22PM 30.2790 -18.5250 213° Southwest 475 547 31,000  Level FlightAware
06:22PM 30.2090 -18.5770 213° Southwest 474 545 31,000  Level FlightAware
06:23PM 30.1250 -18.6400 213° Southwest 473 544 31,000  Level FlightAware
06:24PM 30.0510 -18.6950 213° Southwest 473 544 31,000  Level FlightAware
06:24PM 29.9650 -18.7580 212° Southwest 473 544 31,000  Level FlightAware
06:25PM 29.9090 -18.7990 212° Southwest 473 544 31,000  Level FlightAware
06:26PM 29.8460 -18.8440 212° Southwest 473 544 31,000  Level FlightAware
06:27PM 29.7670 -18.9010 212° Southwest 473 544 31,000  Level FlightAware
06:27PM 29.7040 -18.9470 212° Southwest 473 544 31,000  Level FlightAware
06:28PM 29.6410 -18.9920 212° Southwest 473 544 31,000  Level FlightAware
06:29PM 29.5780 -19.0370 212° Southwest 473 544 31,000  Level FlightAware
06:29PM 29.4380 -19.1470 214° Southwest 465 535 31,000  Level FlightAware
06:30PM 29.3620 -19.2010 212° Southwest 465 535 31,000  Level FlightAware
06:31PM 29.3000 -19.2460 212° Southwest 465 535 31,000  Level FlightAware
06:31PM 29.2380 -19.2900 212° Southwest 465 535 31,000  Level FlightAware
06:32PM 29.1760 -19.3350 212° Southwest 465 535 31,000  Level FlightAware
06:33PM 29.1140 -19.3790 212° Southwest 465 535 31,000  Level FlightAware
06:33PM 29.0520 -19.4230 212° Southwest 465 535 31,000  Level FlightAware
06:34PM 28.9750 -19.4790 212° Southwest 465 535 31,000  Level FlightAware
06:35PM 28.9130 -19.5230 212° Southwest 465 535 31,000  Level FlightAware
06:36PM 28.8500 -19.5670 211° Southwest 465 535 31,000  Level FlightAware
06:36PM 28.7880 -19.6120 212° Southwest 465 535 31,000  Level FlightAware
06:37PM 28.7110 -19.6670 212° Southwest 465 535 31,000  Level FlightAware
06:38PM 28.6490 -19.7110 212° Southwest 465 535 31,000  Level FlightAware
06:38PM 28.5870 -19.7550 212° Southwest 465 535 31,000  Level FlightAware
06:39PM 28.5250 -19.7990 212° Southwest 465 535 31,000  Level FlightAware
06:42PM 28.3139 -20.0106 221° Southwest  Level Estimated
06:43PM 28.2277 -20.0967 221° Southwest  Level Estimated
06:44PM 28.1414 -20.1827 221° Southwest  Level Estimated
06:45PM 28.0550 -20.2685 221° Southwest  Level Estimated
06:46PM 27.9686 -20.3542 221° Southwest  Level Estimated
06:47PM 27.8821 -20.4398 221° Southwest  Level Estimated
06:48PM 27.7956 -20.5252 221° Southwest  Level Estimated
06:49PM 27.7090 -20.6105 221° Southwest  Level Estimated
06:50PM 27.6224 -20.6957 221° Southwest  Level Estimated
06:51PM 27.5358 -20.7807 221° Southwest  Level Estimated
06:52PM 27.4490 -20.8656 221° Southwest  Level Estimated
06:53PM 27.3623 -20.9504 221° Southwest  Level Estimated
06:54PM 27.2754 -21.0350 221° Southwest  Level Estimated
06:55PM 27.1886 -21.1195 221° Southwest  Level Estimated
06:56PM 27.1016 -21.2039 221° Southwest  Level Estimated
06:57PM 27.0146 -21.2881 221° Southwest  Level Estimated
06:58PM 26.9276 -21.3722 221° Southwest  Level Estimated
06:59PM 26.8405 -21.4562 221° Southwest  Level Estimated
07:00PM 26.7534 -21.5400 221° Southwest  Level Estimated
07:01PM 26.6662 -21.6237 221° Southwest  Level Estimated
07:02PM 26.5790 -21.7073 221° Southwest  Level Estimated
07:03PM 26.4917 -21.7908 221° Southwest  Level Estimated
07:04PM 26.4044 -21.8741 221° Southwest  Level Estimated
07:05PM 26.3170 -21.9573 220° Southwest  Level Estimated
07:06PM 26.2296 -22.0404 220° Southwest  Level Estimated
07:07PM 26.1421 -22.1233 220° Southwest  Level Estimated
07:08PM 26.0546 -22.2062 220° Southwest  Level Estimated
07:09PM 25.9671 -22.2889 220° Southwest  Level Estimated
07:10PM 25.8795 -22.3715 220° Southwest  Level Estimated
07:11PM 25.7918 -22.4539 220° Southwest  Level Estimated
07:12PM 25.7041 -22.5363 220° Southwest  Level Estimated
07:13PM 25.6164 -22.6185 220° Southwest  Level Estimated
07:14PM 25.5286 -22.7006 220° Southwest  Level Estimated
07:15PM 25.4407 -22.7826 220° Southwest  Level Estimated
07:16PM 25.3528 -22.8644 220° Southwest  Level Estimated
07:17PM 25.2649 -22.9462 220° Southwest  Level Estimated
07:18PM 25.1769 -23.0278 220° Southwest  Level Estimated
07:19PM 25.0889 -23.1093 220° Southwest  Level Estimated
07:20PM 25.0009 -23.1907 220° Southwest  Level Estimated
07:21PM 24.9128 -23.2719 220° Southwest  Level Estimated
07:22PM 24.8246 -23.3531 220° Southwest  Level Estimated
07:23PM 24.7364 -23.4341 220° Southwest  Level Estimated
07:24PM 24.6482 -23.5151 220° Southwest  Level Estimated
07:25PM 24.5599 -23.5959 220° Southwest  Level Estimated
07:26PM 24.4715 -23.6765 220° Southwest  Level Estimated
07:27PM 24.3832 -23.7571 220° Southwest  Level Estimated
07:28PM 24.2948 -23.8376 220° Southwest  Level Estimated
07:29PM 24.2063 -23.9180 220° Southwest  Level Estimated
07:30PM 24.1178 -23.9982 220° Southwest  Level Estimated
07:31PM 24.0293 -24.0783 220° Southwest  Level Estimated
07:32PM 23.9407 -24.1584 220° Southwest  Level Estimated
07:33PM 23.8521 -24.2383 220° Southwest  Level Estimated
07:34PM 23.7634 -24.3181 219° Southwest  Level Estimated
07:35PM 23.6747 -24.3978 219° Southwest  Level Estimated
07:36PM 23.5860 -24.4774 219° Southwest  Level Estimated
07:37PM 23.4972 -24.5569 219° Southwest  Level Estimated
07:38PM 23.4084 -24.6362 219° Southwest  Level Estimated
07:39PM 23.3195 -24.7155 219° Southwest  Level Estimated
07:40PM 23.2306 -24.7946 219° Southwest  Level Estimated
07:41PM 23.1417 -24.8737 219° Southwest  Level Estimated
07:42PM 23.0527 -24.9527 219° Southwest  Level Estimated
07:43PM 22.9637 -25.0315 219° Southwest  Level Estimated
07:44PM 22.8746 -25.1103 219° Southwest  Level Estimated
07:45PM 22.7855 -25.1889 219° Southwest  Level Estimated
07:46PM 22.6964 -25.2674 219° Southwest  Level Estimated
07:47PM 22.6072 -25.3459 219° Southwest  Level Estimated
07:48PM 22.5180 -25.4242 219° Southwest  Level Estimated
07:49PM 22.4287 -25.5024 219° Southwest  Level Estimated
07:50PM 22.3395 -25.5805 219° Southwest  Level Estimated
07:51PM 22.2501 -25.6586 219° Southwest  Level Estimated
07:52PM 22.1608 -25.7365 219° Southwest  Level Estimated
07:53PM 22.0714 -25.8143 219° Southwest  Level Estimated
07:54PM 21.9819 -25.8921 219° Southwest  Level Estimated
07:55PM 21.8925 -25.9697 219° Southwest  Level Estimated
07:56PM 21.8029 -26.0473 219° Southwest  Level Estimated
07:57PM 21.7134 -26.1247 219° Southwest  Level Estimated
07:58PM 21.6238 -26.2020 219° Southwest  Level Estimated
07:59PM 21.5342 -26.2793 219° Southwest  Level Estimated
08:00PM 21.4445 -26.3564 219° Southwest  Level Estimated
08:01PM 21.3549 -26.4335 219° Southwest  Level Estimated
08:02PM 21.2651 -26.5105 219° Southwest  Level Estimated
08:03PM 21.1754 -26.5874 219° Southwest  Level Estimated
08:04PM 21.0856 -26.6641 219° Southwest  Level Estimated
08:05PM 20.9958 -26.7408 219° Southwest  Level Estimated
08:06PM 20.9059 -26.8174 219° Southwest  Level Estimated
08:07PM 20.8160 -26.8939 219° Southwest  Level Estimated
08:08PM 20.7261 -26.9703 218° Southwest  Level Estimated
08:09PM 20.6361 -27.0466 218° Southwest  Level Estimated
08:10PM 20.5461 -27.1229 218° Southwest  Level Estimated
08:11PM 20.4561 -27.1990 218° Southwest  Level Estimated
08:12PM 20.3660 -27.2751 218° Southwest  Level Estimated
08:13PM 20.2759 -27.3510 218° Southwest  Level Estimated
08:14PM 20.1858 -27.4269 218° Southwest  Level Estimated
08:15PM 20.0956 -27.5027 218° Southwest  Level Estimated
08:16PM 20.0054 -27.5784 218° Southwest  Level Estimated
08:17PM 19.9152 -27.6540 218° Southwest  Level Estimated
08:18PM 19.8249 -27.7295 218° Southwest  Level Estimated
08:19PM 19.7346 -27.8050 218° Southwest  Level Estimated
08:20PM 19.6443 -27.8803 218° Southwest  Level Estimated
08:21PM 19.5540 -27.9556 218° Southwest  Level Estimated
08:22PM 19.4636 -28.0308 218° Southwest  Level Estimated
08:23PM 19.3732 -28.1059 218° Southwest  Level Estimated
08:24PM 19.2827 -28.1809 218° Southwest  Level Estimated
08:25PM 19.1922 -28.2558 218° Southwest  Level Estimated
08:26PM 19.1017 -28.3307 218° Southwest  Level Estimated
08:27PM 19.0112 -28.4055 218° Southwest  Level Estimated
08:28PM 18.9206 -28.4802 218° Southwest  Level Estimated
08:29PM 18.8300 -28.5548 218° Southwest  Level Estimated
08:30PM 18.7394 -28.6293 218° Southwest  Level Estimated
08:31PM 18.6487 -28.7037 218° Southwest  Level Estimated
08:32PM 18.5580 -28.7781 218° Southwest  Level Estimated
08:33PM 18.4673 -28.8524 218° Southwest  Level Estimated
08:34PM 18.3766 -28.9266 218° Southwest  Level Estimated
08:35PM 18.2858 -29.0007 218° Southwest  Level Estimated
08:36PM 18.1950 -29.0748 218° Southwest  Level Estimated
08:37PM 18.1042 -29.1488 218° Southwest  Level Estimated
08:38PM 18.0133 -29.2227 218° Southwest  Level Estimated
08:39PM 17.9224 -29.2965 218° Southwest  Level Estimated
08:40PM 17.8315 -29.3703 218° Southwest  Level Estimated
08:41PM 17.7406 -29.4439 218° Southwest  Level Estimated
08:42PM 17.6496 -29.5175 218° Southwest  Level Estimated
08:43PM 17.5586 -29.5911 218° Southwest  Level Estimated
08:44PM 17.4676 -29.6645 218° Southwest  Level Estimated
08:45PM 17.3765 -29.7379 218° Southwest  Level Estimated
08:46PM 17.2855 -29.8112 218° Southwest  Level Estimated
08:47PM 17.1944 -29.8844 218° Southwest  Level Estimated
08:48PM 17.1032 -29.9576 218° Southwest  Level Estimated
08:49PM 17.0121 -30.0307 217° Southwest  Level Estimated
08:50PM 16.9209 -30.1037 217° Southwest  Level Estimated
08:51PM 16.8297 -30.1767 217° Southwest  Level Estimated
08:52PM 16.7384 -30.2495 217° Southwest  Level Estimated
08:53PM 16.6472 -30.3223 217° Southwest  Level Estimated
08:54PM 16.5559 -30.3951 217° Southwest  Level Estimated
08:55PM 16.4646 -30.4678 217° Southwest  Level Estimated
08:56PM 16.3733 -30.5404 217° Southwest  Level Estimated
08:57PM 16.2819 -30.6129 217° Southwest  Level Estimated
08:58PM 16.1905 -30.6854 217° Southwest  Level Estimated
08:59PM 16.0991 -30.7578 217° Southwest  Level Estimated
09:00PM 16.0077 -30.8301 217° Southwest  Level Estimated
09:01PM 15.9162 -30.9024 217° Southwest  Level Estimated
09:02PM 15.8247 -30.9746 217° Southwest  Level Estimated
09:03PM 15.7332 -31.0467 217° Southwest  Level Estimated
09:04PM 15.6417 -31.1188 217° Southwest  Level Estimated
09:05PM 15.5501 -31.1908 217° Southwest  Level Estimated
09:06PM 15.4586 -31.2627 217° Southwest  Level Estimated
09:07PM 15.3670 -31.3346 217° Southwest  Level Estimated
09:08PM 15.2753 -31.4064 217° Southwest  Level Estimated
09:09PM 15.1837 -31.4782 217° Southwest  Level Estimated
09:10PM 15.0920 -31.5499 217° Southwest  Level Estimated
09:11PM 15.0003 -31.6215 217° Southwest  Level Estimated
09:12PM 14.9086 -31.6931 217° Southwest  Level Estimated
09:13PM 14.8169 -31.7646 217° Southwest  Level Estimated
09:14PM 14.7251 -31.8360 217° Southwest  Level Estimated
09:15PM 14.6334 -31.9074 217° Southwest  Level Estimated
09:16PM 14.5416 -31.9787 217° Southwest  Level Estimated
09:17PM 14.4497 -32.0500 217° Southwest  Level Estimated
09:18PM 14.3579 -32.1212 217° Southwest  Level Estimated
09:19PM 14.2660 -32.1924 217° Southwest  Level Estimated
09:20PM 14.1742 -32.2635 217° Southwest  Level Estimated
09:21PM 14.0822 -32.3345 217° Southwest  Level Estimated
09:22PM 13.9903 -32.4055 217° Southwest  Level Estimated
09:23PM 13.8984 -32.4764 217° Southwest  Level Estimated
09:24PM 13.8064 -32.5472 217° Southwest  Level Estimated
09:25PM 13.7144 -32.6181 217° Southwest  Level Estimated
09:26PM 13.6224 -32.6888 217° Southwest  Level Estimated
09:27PM 13.5304 -32.7595 217° Southwest  Level Estimated
09:28PM 13.4383 -32.8302 217° Southwest  Level Estimated
09:29PM 13.3462 -32.9007 217° Southwest  Level Estimated
09:30PM 13.2542 -32.9713 217° Southwest  Level Estimated
09:31PM 13.1620 -33.0418 217° Southwest  Level Estimated
09:32PM 13.0699 -33.1122 217° Southwest  Level Estimated
09:33PM 12.9778 -33.1826 217° Southwest  Level Estimated
09:34PM 12.8856 -33.2529 217° Southwest  Level Estimated
09:35PM 12.7934 -33.3232 217° Southwest  Level Estimated
09:36PM 12.7012 -33.3934 217° Southwest  Level Estimated
09:37PM 12.6090 -33.4635 217° Southwest  Level Estimated
09:38PM 12.5168 -33.5337 217° Southwest  Level Estimated
09:39PM 12.4245 -33.6037 217° Southwest  Level Estimated
09:40PM 12.3322 -33.6738 217° Southwest  Level Estimated
09:41PM 12.2399 -33.7437 217° Southwest  Level Estimated
09:42PM 12.1476 -33.8136 217° Southwest  Level Estimated
09:43PM 12.0553 -33.8835 217° Southwest  Level Estimated
09:44PM 11.9629 -33.9533 216° Southwest  Level Estimated
09:45PM 11.8706 -34.0231 216° Southwest  Level Estimated
09:46PM 11.7782 -34.0928 216° Southwest  Level Estimated
09:47PM 11.6858 -34.1625 216° Southwest  Level Estimated
09:48PM 11.5934 -34.2322 216° Southwest  Level Estimated
09:49PM 11.5010 -34.3018 216° Southwest  Level Estimated
09:50PM 11.4085 -34.3713 216° Southwest  Level Estimated
09:51PM 11.3161 -34.4408 216° Southwest  Level Estimated
09:52PM 11.2236 -34.5102 216° Southwest  Level Estimated
09:53PM 11.1311 -34.5797 216° Southwest  Level Estimated
09:54PM 11.0386 -34.6490 216° Southwest  Level Estimated
09:55PM 10.9460 -34.7183 216° Southwest  Level Estimated
09:56PM 10.8535 -34.7876 216° Southwest  Level Estimated
09:57PM 10.7609 -34.8569 216° Southwest  Level Estimated
09:58PM 10.6684 -34.9260 216° Southwest  Level Estimated
09:59PM 10.5758 -34.9952 216° Southwest  Level Estimated
10:00PM 10.4832 -35.0643 216° Southwest  Level Estimated
10:01PM 10.3906 -35.1334 216° Southwest  Level Estimated
10:02PM 10.2979 -35.2024 216° Southwest  Level Estimated
10:03PM 10.2053 -35.2714 216° Southwest  Level Estimated
10:04PM 10.1126 -35.3404 216° Southwest  Level Estimated
10:05PM 10.0199 -35.4093 216° Southwest  Level Estimated
10:06PM 9.9272 -35.4781 216° Southwest  Level Estimated
10:07PM 9.8345 -35.5470 216° Southwest  Level Estimated
10:08PM 9.7418 -35.6157 216° Southwest  Level Estimated
10:09PM 9.6491 -35.6845 216° Southwest  Level Estimated
10:10PM 9.5563 -35.7532 216° Southwest  Level Estimated
10:11PM 9.4636 -35.8219 216° Southwest  Level Estimated
10:12PM 9.3708 -35.8905 216° Southwest  Level Estimated
10:13PM 9.2780 -35.9591 216° Southwest  Level Estimated
10:14PM 9.1852 -36.0277 216° Southwest  Level Estimated
10:15PM 9.0924 -36.0962 216° Southwest  Level Estimated
10:16PM 8.9996 -36.1647 216° Southwest  Level Estimated
10:17PM 8.9068 -36.2332 216° Southwest  Level Estimated
10:18PM 8.8139 -36.3016 216° Southwest  Level Estimated
10:19PM 8.7211 -36.3700 216° Southwest  Level Estimated
10:20PM 8.6282 -36.4384 216° Southwest  Level Estimated
10:21PM 8.5353 -36.5067 216° Southwest  Level Estimated
10:22PM 8.4424 -36.5750 216° Southwest  Level Estimated
10:23PM 8.3495 -36.6432 216° Southwest  Level Estimated
10:24PM 8.2566 -36.7114 216° Southwest  Level Estimated
10:25PM 8.1636 -36.7796 216° Southwest  Level Estimated
10:26PM 8.0707 -36.8478 216° Southwest  Level Estimated
10:27PM 7.9777 -36.9159 216° Southwest  Level Estimated
10:28PM 7.8847 -36.9840 216° Southwest  Level Estimated
10:29PM 7.7918 -37.0521 216° Southwest  Level Estimated
10:30PM 7.6988 -37.1201 216° Southwest  Level Estimated
10:31PM 7.6058 -37.1881 216° Southwest  Level Estimated
10:32PM 7.5128 -37.2561 216° Southwest  Level Estimated
10:33PM 7.4198 -37.3241 216° Southwest  Level Estimated
10:34PM 7.3267 -37.3920 216° Southwest  Level Estimated
10:35PM 7.2337 -37.4599 216° Southwest  Level Estimated
10:36PM 7.1406 -37.5277 216° Southwest  Level Estimated
10:37PM 7.0476 -37.5956 216° Southwest  Level Estimated
10:38PM 6.9545 -37.6634 216° Southwest  Level Estimated
10:39PM 6.8614 -37.7312 216° Southwest  Level Estimated
10:40PM 6.7683 -37.7989 216° Southwest  Level Estimated
10:41PM 6.6752 -37.8667 216° Southwest  Level Estimated
10:42PM 6.5821 -37.9344 216° Southwest  Level Estimated
10:43PM 6.4890 -38.0020 216° Southwest  Level Estimated
10:44PM 6.3959 -38.0697 216° Southwest  Level Estimated
10:45PM 6.3027 -38.1373 216° Southwest  Level Estimated
10:46PM 6.2096 -38.2049 216° Southwest  Level Estimated
10:47PM 6.1164 -38.2725 216° Southwest  Level Estimated
10:48PM 6.0233 -38.3401 216° Southwest  Level Estimated
10:49PM 5.9301 -38.4076 216° Southwest  Level Estimated
10:50PM 5.8369 -38.4751 216° Southwest  Level Estimated
10:51PM 5.7437 -38.5426 216° Southwest  Level Estimated
10:52PM 5.6505 -38.6101 216° Southwest  Level Estimated
10:53PM 5.5574 -38.6775 216° Southwest  Level Estimated
10:54PM 5.4641 -38.7449 216° Southwest  Level Estimated
10:55PM 5.3709 -38.8123 216° Southwest  Level Estimated
10:56PM 5.2777 -38.8797 216° Southwest  Level Estimated
10:57PM 5.1845 -38.9471 216° Southwest  Level Estimated
10:58PM 5.0912 -39.0144 216° Southwest  Level Estimated
10:59PM 4.9980 -39.0817 216° Southwest  Level Estimated
10:59PM -1.3500 -37.2620 216° Southwest 511 588 34,000  Level FlightAware
10:59PM -1.4530 -37.3160 208° Southwest 510 587 34,000  Level FlightAware
11:00PM -1.5240 -37.3540 208° Southwest 510 587 34,000  Level FlightAware
11:01PM -1.6220 -37.4060 208° Southwest 507 583 34,000  Level FlightAware
11:01PM -1.7070 -37.4510 208° Southwest 507 583 34,000  Level FlightAware
11:02PM -1.7880 -37.4940 208° Southwest 507 583 34,000  Level FlightAware
11:03PM -1.8950 -37.5510 208° Southwest 509 586 34,000  Level FlightAware
11:04PM -1.9780 -37.5950 208° Southwest 509 586 34,000  Level FlightAware
11:04PM -2.0620 -37.6390 208° Southwest 510 587 34,000  Level FlightAware
11:05PM -2.1540 -37.6880 208° Southwest 510 587 34,000  Level FlightAware
11:06PM -2.2290 -37.7280 208° Southwest 510 587 34,000  Level FlightAware
11:06PM -2.3210 -37.7770 208° Southwest 512 589 34,000  Level FlightAware
11:07PM -2.4190 -37.8290 208° Southwest 515 593 34,000  Level FlightAware
11:08PM -2.4910 -37.8670 208° Southwest 514 592 34,000  Level FlightAware
11:08PM -2.5970 -37.9230 208° Southwest 513 590 34,000  Level FlightAware
11:09PM -2.6800 -37.9670 208° Southwest 511 588 34,000  Level FlightAware
11:10PM -2.7770 -38.0190 208° Southwest 509 586 34,000  Level FlightAware
11:11PM -2.8780 -38.0720 208° Southwest 506 582 34,000  Level FlightAware
11:11PM -2.9710 -38.1220 208° Southwest 506 582 34,000  Level FlightAware
11:12PM -3.0650 -38.1720 208° Southwest 507 583 34,000  Level FlightAware
11:13PM -3.1500 -38.2170 208° Southwest 508 585 34,000  Level FlightAware
11:14PM -3.2320 -38.2610 208° Southwest 508 585 34,000  Level FlightAware
11:14PM -3.3250 -38.3100 208° Southwest 509 586 34,000  Level FlightAware
11:15PM -3.4070 -38.3540 208° Southwest 511 588 34,000  Level FlightAware
11:16PM -3.5060 -38.4060 208° Southwest 511 588 34,000  Level FlightAware
11:16PM -3.5890 -38.4500 208° Southwest 510 587 34,000  Level FlightAware
11:17PM -3.6600 -38.4880 208° Southwest 511 588 34,000  Level FlightAware
11:18PM -3.7660 -38.5430 207° Southwest 510 587 34,000  Level FlightAware
11:18PM -3.8500 -38.5830 205° Southwest 511 588 34,000  Level FlightAware
11:19PM -3.9380 -38.6220 204° Southwest 511 588 34,000  Level FlightAware
11:20PM -4.0370 -38.6660 204° Southwest 510 587 34,000  Level FlightAware
11:21PM -4.1250 -38.7050 204° Southwest 510 587 34,000  Level FlightAware
11:21PM -4.2180 -38.7470 204° Southwest 510 587 34,000  Level FlightAware
11:22PM -4.3050 -38.7860 204° Southwest 510 587 34,000  Level FlightAware
11:23PM -4.4060 -38.8310 204° Southwest 512 589 34,000  Level FlightAware
11:23PM -4.4940 -38.8700 204° Southwest 514 592 34,000  Level FlightAware
11:24PM -4.5810 -38.9090 204° Southwest 515 593 34,000  Level FlightAware
11:25PM -4.6670 -38.9470 204° Southwest 514 592 34,000  Level FlightAware
11:25PM -4.7610 -38.9890 204° Southwest 514 592 34,000  Level FlightAware
11:26PM -4.8500 -39.0290 204° Southwest 515 593 34,000  Level FlightAware
11:27PM -4.9670 -39.0820 204° Southwest 513 590 34,000  Level FlightAware
11:28PM -5.0400 -39.1140 204° Southwest 513 590 34,000  Level FlightAware
11:28PM -5.1140 -39.1470 204° Southwest 513 590 34,000  Level FlightAware
11:29PM -5.2550 -39.2110 204° Southwest 512 589 34,000  Level FlightAware
11:30PM -5.3220 -39.2410 204° Southwest 511 588 34,000  Level FlightAware
11:31PM -5.4140 -39.2820 204° Southwest 511 588 34,000  Level FlightAware
11:31PM -5.4870 -39.3150 204° Southwest 511 588 34,000  Level FlightAware
11:32PM -5.5600 -39.3480 204° Southwest 511 588 34,000  Level FlightAware
11:33PM -5.6340 -39.3810 204° Southwest 511 588 34,000  Level FlightAware
11:33PM -5.7070 -39.4140 204° Southwest 511 588 34,000  Level FlightAware
11:34PM -5.7990 -39.4550 204° Southwest 511 588 34,000  Level FlightAware
11:35PM -5.8720 -39.4880 204° Southwest 511 588 34,000  Level FlightAware
11:35PM -5.9460 -39.5200 203° Southwest 511 588 34,000  Level FlightAware
11:36PM -6.0190 -39.5530 204° Southwest 511 588 34,000  Level FlightAware
11:37PM -6.0930 -39.5860 204° Southwest 511 588 34,000  Level FlightAware
11:37PM -6.1660 -39.6190 204° Southwest 511 588 34,000  Level FlightAware
11:38PM -6.2580 -39.6600 204° Southwest 511 588 34,000  Level FlightAware
11:39PM -6.3310 -39.6930 204° Southwest 511 588 34,000 -120 Level FlightAware
11:42PM -6.5450 -39.8914 223° Southwest  Level Estimated
11:43PM -6.6294 -39.9698 223° Southwest  Level Estimated
11:44PM -6.7139 -40.0482 223° Southwest  Level Estimated
11:45PM -6.7983 -40.1266 223° Southwest  Level Estimated
11:46PM -6.8827 -40.2050 223° Southwest  Level Estimated
11:47PM -6.9671 -40.2835 223° Southwest  Level Estimated
11:48PM -7.0515 -40.3620 223° Southwest  Level Estimated
11:49PM -7.1359 -40.4405 223° Southwest  Level Estimated
11:50PM -7.2202 -40.5191 223° Southwest  Level Estimated
11:51PM -7.3046 -40.5977 223° Southwest  Level Estimated
11:52PM -7.3889 -40.6763 223° Southwest  Level Estimated
11:53PM -7.4732 -40.7550 223° Southwest  Level Estimated
11:54PM -7.5575 -40.8336 223° Southwest  Level Estimated
11:55PM -7.6418 -40.9123 223° Southwest  Level Estimated
11:56PM -7.7261 -40.9911 223° Southwest  Level Estimated
11:57PM -7.8104 -41.0699 223° Southwest  Level Estimated
11:58PM -7.8946 -41.1487 223° Southwest  Level Estimated
11:59PM -7.9789 -41.2275 223° Southwest  Level Estimated
12:00AM -8.0631 -41.3064 223° Southwest  Level Estimated
12:01AM -8.1473 -41.3853 223° Southwest  Level Estimated
12:02AM -8.2315 -41.4642 223° Southwest  Level Estimated
12:03AM -8.3156 -41.5432 223° Southwest  Level Estimated
12:04AM -8.3998 -41.6222 223° Southwest  Level Estimated
12:05AM -8.4839 -41.7012 223° Southwest  Level Estimated
12:06AM -8.5681 -41.7803 223° Southwest  Level Estimated
12:07AM -8.6522 -41.8594 223° Southwest  Level Estimated
12:08AM -8.7363 -41.9385 223° Southwest  Level Estimated
12:09AM -8.8203 -42.0177 223° Southwest  Level Estimated
12:10AM -8.9044 -42.0969 223° Southwest  Level Estimated
12:11AM -8.9885 -42.1762 223° Southwest  Level Estimated
12:12AM -9.0725 -42.2555 223° Southwest  Level Estimated
12:13AM -9.1565 -42.3348 223° Southwest  Level Estimated
12:14AM -9.2405 -42.4141 223° Southwest  Level Estimated
12:15AM -9.3244 -42.4935 223° Southwest  Level Estimated
12:16AM -9.4084 -42.5730 223° Southwest  Level Estimated
12:17AM -9.4923 -42.6525 223° Southwest  Level Estimated
12:18AM -9.5763 -42.7320 223° Southwest  Level Estimated
12:19AM -9.6602 -42.8115 223° Southwest  Level Estimated
12:20AM -9.7441 -42.8911 223° Southwest  Level Estimated
12:21AM -9.8279 -42.9707 223° Southwest  Level Estimated
12:22AM -9.9118 -43.0504 223° Southwest  Level Estimated
12:23AM -9.9956 -43.1301 223° Southwest  Level Estimated
12:24AM -10.0794 -43.2099 223° Southwest  Level Estimated
12:25AM -10.1632 -43.2897 223° Southwest  Level Estimated
12:26AM -10.2470 -43.3695 223° Southwest  Level Estimated
12:27AM -10.3307 -43.4494 223° Southwest  Level Estimated
12:28AM -10.4145 -43.5293 223° Southwest  Level Estimated
12:29AM -10.4982 -43.6093 223° Southwest  Level Estimated
12:30AM -10.5819 -43.6893 223° Southwest  Level Estimated
12:31AM -10.6655 -43.7693 223° Southwest  Level Estimated
12:32AM -10.7492 -43.8494 223° Southwest  Level Estimated
12:33AM -10.8328 -43.9296 223° Southwest  Level Estimated
12:34AM -10.9164 -44.0098 223° Southwest  Level Estimated
12:35AM -11.0000 -44.0900 223° Southwest  Level Estimated
12:36AM -11.0836 -44.1703 223° Southwest  Level Estimated
12:37AM -11.1671 -44.2506 223° Southwest  Level Estimated
12:38AM -11.2507 -44.3310 223° Southwest  Level Estimated
12:39AM -11.3342 -44.4114 223° Southwest  Level Estimated
12:40AM -11.4176 -44.4919 223° Southwest  Level Estimated
12:41AM -11.5011 -44.5724 223° Southwest  Level Estimated
12:42AM -11.5845 -44.6529 223° Southwest  Level Estimated
12:43AM -11.6680 -44.7335 223° Southwest  Level Estimated
12:44AM -11.7514 -44.8142 223° Southwest  Level Estimated
12:45AM -11.8347 -44.8949 223° Southwest  Level Estimated
12:46AM -11.9181 -44.9756 223° Southwest  Level Estimated
12:47AM -12.0014 -45.0564 223° Southwest  Level Estimated
12:48AM -12.0847 -45.1373 223° Southwest  Level Estimated
12:49AM -12.1680 -45.2182 224° Southwest  Level Estimated
12:50AM -12.2512 -45.2991 224° Southwest  Level Estimated
12:51AM -12.3345 -45.3801 224° Southwest  Level Estimated
12:52AM -12.4177 -45.4612 224° Southwest  Level Estimated
12:53AM -12.5009 -45.5423 224° Southwest  Level Estimated
12:54AM -12.5840 -45.6235 224° Southwest  Level Estimated
12:55AM -12.6672 -45.7047 224° Southwest  Level Estimated
12:56AM -12.7503 -45.7860 224° Southwest  Level Estimated
12:57AM -12.8334 -45.8673 224° Southwest  Level Estimated
12:58AM -12.9164 -45.9487 224° Southwest  Level Estimated
12:59AM -12.9995 -46.0301 224° Southwest  Level Estimated
01:00AM -13.0825 -46.1116 224° Southwest  Level Estimated
01:01AM -13.1655 -46.1931 224° Southwest  Level Estimated
01:02AM -13.2484 -46.2747 224° Southwest  Level Estimated
01:03AM -13.3313 -46.3563 224° Southwest  Level Estimated
01:04AM -13.4143 -46.4380 224° Southwest  Level Estimated
01:05AM -13.4971 -46.5198 224° Southwest  Level Estimated
01:06AM -13.5800 -46.6016 224° Southwest  Level Estimated
01:07AM -13.6628 -46.6835 224° Southwest  Level Estimated
01:08AM -13.7456 -46.7654 224° Southwest  Level Estimated
01:09AM -13.8284 -46.8474 224° Southwest  Level Estimated
01:10AM -13.9111 -46.9295 224° Southwest  Level Estimated
01:11AM -13.9938 -47.0116 224° Southwest  Level Estimated
01:12AM -14.0765 -47.0937 224° Southwest  Level Estimated
01:13AM -14.1592 -47.1760 224° Southwest  Level Estimated
01:14AM -14.2418 -47.2583 224° Southwest  Level Estimated
01:15AM -14.3244 -47.3406 224° Southwest  Level Estimated
01:16AM -14.4070 -47.4230 224° Southwest  Level Estimated
01:17AM -14.4896 -47.5055 224° Southwest  Level Estimated
01:18AM -14.5721 -47.5880 224° Southwest  Level Estimated
01:19AM -14.6546 -47.6706 224° Southwest  Level Estimated
01:20AM -14.7371 -47.7533 224° Southwest  Level Estimated
01:21AM -14.8195 -47.8360 224° Southwest  Level Estimated
01:22AM -14.9019 -47.9188 224° Southwest  Level Estimated
01:23AM -14.9843 -48.0016 224° Southwest  Level Estimated
01:24AM -15.0666 -48.0845 224° Southwest  Level Estimated
01:25AM -15.1489 -48.1675 224° Southwest  Level Estimated
01:26AM -15.2312 -48.2505 224° Southwest  Level Estimated
01:27AM -15.3134 -48.3336 224° Southwest  Level Estimated
01:28AM -15.3956 -48.4168 224° Southwest  Level Estimated
01:29AM -15.4778 -48.5000 224° Southwest  Level Estimated
01:30AM -15.5600 -48.5833 224° Southwest  Level Estimated
01:31AM -15.6421 -48.6667 224° Southwest  Level Estimated
01:32AM -15.7242 -48.7501 224° Southwest  Level Estimated
01:33AM -15.8063 -48.8336 224° Southwest  Level Estimated
01:34AM -15.8883 -48.9171 224° Southwest  Level Estimated
01:35AM -15.9703 -49.0008 224° Southwest  Level Estimated
01:36AM -16.0523 -49.0845 224° Southwest  Level Estimated
01:37AM -16.1342 -49.1683 224° Southwest  Level Estimated
01:38AM -16.2161 -49.2521 225° Southwest  Level Estimated
01:39AM -16.2980 -49.3360 225° Southwest  Level Estimated
01:40AM -16.3799 -49.4200 225° Southwest  Level Estimated
01:41AM -16.4617 -49.5040 225° Southwest  Level Estimated
01:42AM -16.5434 -49.5882 225° Southwest  Level Estimated
01:43AM -16.6252 -49.6723 225° Southwest  Level Estimated
01:44AM -16.7069 -49.7566 225° Southwest  Level Estimated
01:45AM -16.7885 -49.8409 225° Southwest  Level Estimated
01:46AM -16.8702 -49.9254 225° Southwest  Level Estimated
01:47AM -16.9518 -50.0098 225° Southwest  Level Estimated
01:48AM -17.0333 -50.0944 225° Southwest  Level Estimated
01:49AM -17.1149 -50.1790 225° Southwest  Level Estimated
01:50AM -17.1964 -50.2637 225° Southwest  Level Estimated
01:51AM -17.2778 -50.3485 225° Southwest  Level Estimated
01:52AM -17.3593 -50.4333 225° Southwest  Level Estimated
01:53AM -17.4407 -50.5183 225° Southwest  Level Estimated
01:54AM -17.5220 -50.6033 225° Southwest  Level Estimated
01:55AM -17.6033 -50.6884 225° Southwest  Level Estimated
01:56AM -17.6846 -50.7735 225° Southwest  Level Estimated
01:57AM -17.7659 -50.8587 225° Southwest  Level Estimated
01:58AM -17.8471 -50.9440 225° Southwest  Level Estimated
01:59AM -17.9282 -51.0294 225° Southwest  Level Estimated
02:00AM -18.0094 -51.1149 225° Southwest  Level Estimated
02:01AM -18.0905 -51.2005 225° Southwest  Level Estimated
02:02AM -18.1715 -51.2861 225° Southwest  Level Estimated
02:03AM -18.2525 -51.3718 225° Southwest  Level Estimated
02:04AM -18.3335 -51.4576 225° Southwest  Level Estimated
02:05AM -18.4145 -51.5434 225° Southwest  Level Estimated
02:06AM -18.4954 -51.6294 225° Southwest  Level Estimated
02:07AM -18.5762 -51.7154 225° Southwest  Level Estimated
02:08AM -18.6571 -51.8015 225° Southwest  Level Estimated
02:09AM -18.7379 -51.8877 225° Southwest  Level Estimated
02:10AM -18.8186 -51.9740 225° Southwest  Level Estimated
02:11AM -18.8993 -52.0603 225° Southwest  Level Estimated
02:12AM -18.9800 -52.1468 225° Southwest  Level Estimated
02:13AM -19.0606 -52.2333 225° Southwest  Level Estimated
02:14AM -19.1412 -52.3199 225° Southwest  Level Estimated
02:15AM -19.2218 -52.4066 225° Southwest  Level Estimated
02:16AM -19.3023 -52.4934 225° Southwest  Level Estimated
02:17AM -19.3827 -52.5802 226° Southwest  Level Estimated
02:18AM -19.4632 -52.6672 226° Southwest  Level Estimated
02:19AM -19.5435 -52.7542 226° Southwest  Level Estimated
02:20AM -19.6239 -52.8413 226° Southwest  Level Estimated
02:21AM -19.7042 -52.9285 226° Southwest  Level Estimated
02:22AM -19.7844 -53.0158 226° Southwest  Level Estimated
02:23AM -19.8646 -53.1032 226° Southwest  Level Estimated
02:24AM -19.9448 -53.1907 226° Southwest  Level Estimated
02:25AM -20.0249 -53.2783 226° Southwest  Level Estimated
02:26AM -20.1050 -53.3659 226° Southwest  Level Estimated
02:27AM -20.1851 -53.4536 226° Southwest  Level Estimated
02:28AM -20.2651 -53.5415 226° Southwest  Level Estimated
02:29AM -20.3450 -53.6294 226° Southwest  Level Estimated
02:30AM -20.4249 -53.7174 226° Southwest  Level Estimated
02:31AM -20.5048 -53.8055 226° Southwest  Level Estimated
02:32AM -20.5846 -53.8937 226° Southwest  Level Estimated
02:33AM -20.6644 -53.9820 226° Southwest  Level Estimated
02:34AM -20.7441 -54.0704 226° Southwest  Level Estimated
02:35AM -20.8238 -54.1588 226° Southwest  Level Estimated
02:36AM -20.9035 -54.2474 226° Southwest  Level Estimated
02:37AM -20.9831 -54.3361 226° Southwest  Level Estimated
02:38AM -21.0626 -54.4248 226° Southwest  Level Estimated
02:39AM -21.1421 -54.5137 226° Southwest  Level Estimated
02:40AM -21.2216 -54.6026 226° Southwest  Level Estimated
02:41AM -21.3010 -54.6917 226° Southwest  Level Estimated
02:42AM -21.3803 -54.7808 226° Southwest  Level Estimated
02:43AM -21.4597 -54.8700 226° Southwest  Level Estimated
02:44AM -21.5389 -54.9594 226° Southwest  Level Estimated
02:45AM -21.6182 -55.0488 226° Southwest  Level Estimated
02:46AM -21.6973 -55.1383 226° Southwest  Level Estimated
02:47AM -21.7764 -55.2280 226° Southwest  Level Estimated
02:48AM -21.8555 -55.3177 226° Southwest  Level Estimated
02:49AM -21.9346 -55.4075 227° Southwest  Level Estimated
02:50AM -22.0135 -55.4974 227° Southwest  Level Estimated
02:51AM -22.0925 -55.5874 227° Southwest  Level Estimated
02:52AM -22.1714 -55.6776 227° Southwest  Level Estimated
02:53AM -22.2502 -55.7678 227° Southwest  Level Estimated
02:54AM -22.3290 -55.8581 227° Southwest  Level Estimated
02:55AM -22.4077 -55.9486 227° Southwest  Level Estimated
02:56AM -22.4864 -56.0391 227° Southwest  Level Estimated
02:57AM -22.5650 -56.1297 227° Southwest  Level Estimated
02:58AM -22.6436 -56.2205 227° Southwest  Level Estimated
02:59AM -22.7221 -56.3113 227° Southwest  Level Estimated
03:00AM -22.8006 -56.4022 227° Southwest  Level Estimated
03:01AM -22.8790 -56.4933 227° Southwest  Level Estimated
03:02AM -22.9574 -56.5845 227° Southwest  Level Estimated
03:03AM -23.0357 -56.6757 227° Southwest  Level Estimated
03:04AM -23.1140 -56.7671 227° Southwest  Level Estimated
03:05AM -23.1922 -56.8586 227° Southwest  Level Estimated
03:06AM -23.2704 -56.9501 227° Southwest  Level Estimated
03:07AM -23.3485 -57.0418 227° Southwest  Level Estimated
03:08AM -23.4265 -57.1336 227° Southwest  Level Estimated
03:09AM -23.5045 -57.2255 227° Southwest  Level Estimated
03:10AM -23.5825 -57.3176 227° Southwest  Level Estimated
03:11AM -23.6604 -57.4097 227° Southwest  Level Estimated
03:12AM -23.7382 -57.5019 227° Southwest  Level Estimated
03:13AM -23.8160 -57.5942 227° Southwest  Level Estimated
03:14AM -23.8937 -57.6867 227° Southwest  Level Estimated
03:15AM -23.9714 -57.7793 227° Southwest  Level Estimated
03:16AM -24.0490 -57.8719 227° Southwest  Level Estimated
03:17AM -24.1266 -57.9647 228° Southwest  Level Estimated
03:18AM -24.2041 -58.0576 228° Southwest  Level Estimated
03:19AM -24.2816 -58.1507 228° Southwest  Level Estimated
03:20AM -24.3590 -58.2438 228° Southwest  Level Estimated
03:21AM -24.4363 -58.3370 228° Southwest  Level Estimated
03:22AM -24.5136 -58.4304 228° Southwest  Level Estimated
03:23AM -24.5908 -58.5238 228° Southwest  Level Estimated
03:24AM -24.6680 -58.6174 228° Southwest  Level Estimated
03:25AM -24.7451 -58.7111 228° Southwest  Level Estimated
03:26AM -24.8221 -58.8050 228° Southwest  Level Estimated
03:27AM -24.8991 -58.8989 228° Southwest  Level Estimated
03:28AM -24.9760 -58.9930 228° Southwest  Level Estimated
03:29AM -25.0529 -59.0871 228° Southwest  Level Estimated
03:30AM -25.1297 -59.1814 228° Southwest  Level Estimated
03:31AM -25.2065 -59.2758 228° Southwest  Level Estimated
03:32AM -25.2832 -59.3703 228° Southwest  Level Estimated
03:33AM -25.3598 -59.4650 228° Southwest  Level Estimated
03:34AM -25.4364 -59.5598 228° Southwest  Level Estimated
03:35AM -25.5129 -59.6547 228° Southwest  Level Estimated
03:36AM -25.5893 -59.7497 228° Southwest  Level Estimated
03:37AM -25.6657 -59.8448 228° Southwest  Level Estimated
03:38AM -25.7421 -59.9400 228° Southwest  Level Estimated
03:39AM -25.8183 -60.0354 228° Southwest  Level Estimated
03:40AM -25.8945 -60.1309 228° Southwest  Level Estimated
03:41AM -25.9707 -60.2265 228° Southwest  Level Estimated
03:42AM -26.0467 -60.3223 228° Southwest  Level Estimated
03:43AM -26.1227 -60.4182 229° Southwest  Level Estimated
03:44AM -26.1987 -60.5141 229° Southwest  Level Estimated
03:45AM -26.2746 -60.6103 229° Southwest  Level Estimated
03:46AM -26.3504 -60.7065 229° Southwest  Level Estimated
03:47AM -26.4262 -60.8029 229° Southwest  Level Estimated
03:48AM -26.5019 -60.8994 229° Southwest  Level Estimated
03:49AM -26.5775 -60.9960 229° Southwest  Level Estimated
03:50AM -26.6530 -61.0927 229° Southwest  Level Estimated
03:51AM -26.7285 -61.1896 229° Southwest  Level Estimated
03:52AM -26.8040 -61.2866 229° Southwest  Level Estimated
03:53AM -26.8794 -61.3838 229° Southwest  Level Estimated
03:54AM -26.9547 -61.4810 229° Southwest  Level Estimated
03:55AM -27.0299 -61.5784 229° Southwest  Level Estimated
03:56AM -27.1050 -61.6760 229° Southwest  Level Estimated
03:57AM -27.1801 -61.7736 229° Southwest  Level Estimated
03:58AM -27.2552 -61.8714 229° Southwest  Level Estimated
03:59AM -27.3301 -61.9693 229° Southwest  Level Estimated
04:00AM -27.4050 -62.0674 229° Southwest  Level Estimated
04:01AM -27.4799 -62.1656 229° Southwest  Level Estimated
04:02AM -27.5546 -62.2639 229° Southwest  Level Estimated
04:03AM -27.6293 -62.3624 229° Southwest  Level Estimated
04:04AM -27.7039 -62.4609 229° Southwest  Level Estimated
04:05AM -27.7785 -62.5597 230° Southwest  Level Estimated
04:06AM -27.8530 -62.6585 230° Southwest  Level Estimated
04:07AM -27.9274 -62.7575 230° Southwest  Level Estimated
04:07AM -23.0370 -47.1090 230° Southwest 202 232 3,400  Level FlightAware
04:07AM -23.0650 -47.1330 218° Southwest 258 297 4,800 3,060 Climbing FlightAware
04:08AM -23.0840 -47.1610 234° Southwest 263 303 6,500 4,200 Climbing FlightAware
04:08AM -23.1000 -47.1740 217° Southwest 267 307 7,600 4,080 Climbing FlightAware
04:09AM -23.1350 -47.1930 207° Southwest 282 325 9,600 2,940 Climbing FlightAware
04:09AM -23.2040 -47.2260 204° Southwest 340 391 11,800 2,220 Climbing FlightAware
04:10AM -23.2650 -47.2570 205° Southwest 380 437 13,200 2,820 Climbing FlightAware
04:11AM -23.3380 -47.2930 204° Southwest 391 450 15,800 3,420 Climbing FlightAware
04:12AM -23.4060 -47.3270 205° Southwest 390 449 18,100 3,120 Climbing FlightAware
04:12AM -23.4840 -47.3670 205° Southwest 412 474 20,300 2,700 Climbing FlightAware
04:13AM -23.5450 -47.4100 213° Southwest 421 484 22,000 2,700 Climbing FlightAware
04:14AM -23.6020 -47.4600 219° Southwest 421 484 23,700 2,580 Climbing FlightAware
04:14AM -23.6790 -47.5280 219° Southwest 440 506 25,700 2,160 Climbing FlightAware
04:15AM -23.7630 -47.6010 218° Southwest 457 526 27,500 2,100 Climbing FlightAware
04:16AM -23.8310 -47.6600 218° Southwest 463 533 29,100 2,160 Climbing FlightAware
04:17AM -23.9060 -47.7250 218° Southwest 472 543 30,600 2,400 Climbing FlightAware
04:17AM -23.9770 -47.7870 219° Southwest 466 536 32,500 2,580 Climbing FlightAware
04:18AM -24.0470 -47.8480 219° Southwest 458 527 34,300 2,280 Climbing FlightAware
04:19AM -24.1180 -47.9110 219° Southwest 452 520 35,800 1,260 Climbing FlightAware
04:19AM -24.1870 -47.9720 219° Southwest 454 522 36,000 120 Climbing FlightAware
04:20AM -24.2420 -48.0200 219° Southwest 452 520 36,000  Level FlightAware
04:21AM -24.3330 -48.1010 219° Southwest 451 519 36,000  Level FlightAware
04:22AM -24.3990 -48.1590 219° Southwest 451 519 36,000  Level FlightAware
04:22AM -24.4640 -48.2160 219° Southwest 451 519 36,000  Level FlightAware
04:23AM -24.5310 -48.2720 217° Southwest 456 525 36,000  Level FlightAware
04:24AM -24.6100 -48.3350 216° Southwest 457 526 36,000  Level FlightAware
04:24AM -24.6850 -48.3940 216° Southwest 457 526 36,000  Level FlightAware
04:25AM -24.7540 -48.4490 216° Southwest 456 525 36,000  Level FlightAware
04:26AM -24.8230 -48.5030 215° Southwest 454 522 36,000  Level FlightAware
04:26AM -24.8890 -48.5550 216° Southwest 452 520 36,000  Level FlightAware
04:27AM -24.9650 -48.6160 216° Southwest 449 517 36,000  Level FlightAware
04:28AM -25.0420 -48.6770 216° Southwest 446 513 36,000  Level FlightAware
04:29AM -25.1090 -48.7310 216° Southwest 446 513 36,000  Level FlightAware
04:29AM -25.1860 -48.7920 216° Southwest 444 511 36,000  Level FlightAware
04:30AM -25.2520 -48.8440 215° Southwest 442 509 36,000  Level FlightAware
04:31AM -25.3190 -48.8980 216° Southwest 443 510 36,000  Level FlightAware
04:31AM -25.3920 -48.9560 216° Southwest 444 511 36,000  Level FlightAware
04:32AM -25.4590 -49.0100 216° Southwest 445 512 36,000  Level FlightAware
04:33AM -25.5350 -49.0710 216° Southwest 443 510 36,000  Level FlightAware
04:34AM -25.6020 -49.1250 216° Southwest 443 510 36,000  Level FlightAware
04:34AM -25.6560 -49.1690 216° Southwest 444 511 36,000  Level FlightAware
04:35AM -25.7350 -49.2320 216° Southwest 445 512 36,000  Level FlightAware
04:36AM -25.8010 -49.2850 216° Southwest 445 512 36,000  Level FlightAware
04:36AM -25.8720 -49.3430 216° Southwest 445 512 36,000  Level FlightAware
04:37AM -25.9470 -49.4030 216° Southwest 447 514 36,000  Level FlightAware
04:38AM -26.0140 -49.4580 216° Southwest 450 518 36,000  Level FlightAware
04:38AM -26.0880 -49.5180 216° Southwest 449 517 36,000  Level FlightAware
04:39AM -26.1540 -49.5720 216° Southwest 447 514 36,000  Level FlightAware
04:40AM -26.2310 -49.6340 216° Southwest 451 519 36,000  Level FlightAware
04:41AM -26.3000 -49.6900 216° Southwest 452 520 36,000  Level FlightAware
04:41AM -26.3670 -49.7450 216° Southwest 451 519 36,000  Level FlightAware
04:42AM -26.4350 -49.8010 216° Southwest 451 519 36,000  Level FlightAware
04:43AM -26.5090 -49.8620 216° Southwest 448 516 36,000  Level FlightAware
04:43AM -26.5850 -49.9240 216° Southwest 448 516 36,000  Level FlightAware
04:44AM -26.6440 -49.9720 216° Southwest 448 516 36,000  Level FlightAware
04:45AM -26.7180 -50.0340 217° Southwest 448 516 36,000  Level FlightAware
04:45AM -26.7860 -50.0890 216° Southwest 448 516 36,000  Level FlightAware
04:46AM -26.8600 -50.1500 216° Southwest 448 516 36,000  Level FlightAware
04:47AM -26.9270 -50.2050 216° Southwest 450 518 36,000  Level FlightAware
04:47AM -26.9920 -50.2600 217° Southwest 449 517 36,000  Level FlightAware
04:48AM -27.0700 -50.3240 216° Southwest 446 513 36,000  Level FlightAware
04:49AM -27.1570 -50.3960 216° Southwest 446 513 36,000  Level FlightAware
04:50AM -27.2380 -50.4640 217° Southwest 446 513 36,000  Level FlightAware
04:50AM -27.2920 -50.5090 217° Southwest 447 514 36,000  Level FlightAware
04:51AM -27.3730 -50.5760 216° Southwest 446 513 36,000  Level FlightAware
04:52AM -27.4280 -50.6230 217° Southwest 447 514 36,000  Level FlightAware
04:53AM -27.5130 -50.6950 217° Southwest 445 512 36,000  Level FlightAware
04:53AM -27.5740 -50.7450 216° Southwest 445 512 36,000  Level FlightAware
04:54AM -27.6520 -50.8110 217° Southwest 445 512 36,000  Level FlightAware
04:55AM -27.7260 -50.8730 217° Southwest 442 509 36,000  Level FlightAware
04:55AM -27.7930 -50.9300 217° Southwest 439 505 36,000  Level FlightAware
04:56AM -27.8570 -50.9840 217° Southwest 439 505 36,000  Level FlightAware
04:57AM -27.9290 -51.0450 217° Southwest 437 503 36,000  Level FlightAware
04:58AM -27.9940 -51.1000 217° Southwest 438 504 36,000  Level FlightAware
04:58AM -28.0690 -51.1630 217° Southwest 436 502 36,000  Level FlightAware
04:59AM -28.1270 -51.2130 217° Southwest 437 503 36,000  Level FlightAware
05:00AM -28.1980 -51.2740 217° Southwest 438 504 36,000  Level FlightAware
05:00AM -28.2680 -51.3340 217° Southwest 440 506 36,000  Level FlightAware
05:01AM -28.3340 -51.3900 217° Southwest 439 505 36,000  Level FlightAware
05:02AM -28.4080 -51.4540 217° Southwest 439 505 36,000  Level FlightAware
05:02AM -28.4740 -51.5100 217° Southwest 441 507 36,000  Level FlightAware
05:03AM -28.5470 -51.5720 217° Southwest 441 507 36,000  Level FlightAware
05:04AM -28.6120 -51.6280 217° Southwest 443 510 36,000  Level FlightAware
05:05AM -28.6770 -51.6840 217° Southwest 443 510 36,000  Level FlightAware
05:05AM -28.7520 -51.7490 217° Southwest 446 513 36,000  Level FlightAware
05:06AM -28.8180 -51.8060 217° Southwest 451 519 36,000  Level FlightAware
05:07AM -28.8840 -51.8640 218° Southwest 450 518 36,000  Level FlightAware
05:07AM -28.9580 -51.9280 217° Southwest 450 518 36,000  Level FlightAware
05:08AM -29.0240 -51.9860 218° Southwest 453 521 36,000  Level FlightAware
05:09AM -29.0910 -52.0440 217° Southwest 457 526 36,000  Level FlightAware
05:09AM -29.1690 -52.1120 217° Southwest 459 528 36,000  Level FlightAware
05:10AM -29.2360 -52.1700 217° Southwest 461 531 36,000  Level FlightAware
05:11AM -29.3120 -52.2370 218° Southwest 464 534 36,000  Level FlightAware
05:12AM -29.3790 -52.2950 217° Southwest 464 534 36,000  Level FlightAware
05:12AM -29.4580 -52.3650 218° Southwest 462 532 36,000  Level FlightAware
05:13AM -29.5260 -52.4250 218° Southwest 461 531 36,000  Level FlightAware
05:14AM -29.5970 -52.4870 217° Southwest 461 531 36,000  Level FlightAware
05:14AM -29.6550 -52.5370 217° Southwest 461 531 36,000  Level FlightAware
05:15AM -29.7340 -52.6090 218° Southwest 458 527 36,000  Level FlightAware
05:16AM -29.8060 -52.6730 218° Southwest 456 525 36,000  Level FlightAware
05:16AM -29.8600 -52.7210 218° Southwest 455 524 36,000  Level FlightAware
05:17AM -29.9510 -52.8020 218° Southwest 451 519 36,000  Level FlightAware
05:18AM -29.9950 -52.8410 218° Southwest 451 519 36,000  Level FlightAware
05:18AM -30.0770 -52.9140 218° Southwest 445 512 36,000  Level FlightAware
05:19AM -30.1560 -52.9850 218° Southwest 434 499 36,000  Level FlightAware
05:20AM -30.2200 -53.0420 218° Southwest 433 498 36,000  Level FlightAware
05:21AM -30.2820 -53.0980 218° Southwest 431 496 36,000  Level FlightAware
05:21AM -30.3480 -53.1570 218° Southwest 430 495 36,000  Level FlightAware
05:22AM -30.4010 -53.2050 218° Southwest 430 495 36,000  Level FlightAware
05:23AM -30.4770 -53.2730 218° Southwest 430 495 36,000  Level FlightAware
05:24AM -30.5600 -53.3490 218° Southwest 430 495 36,000  Level FlightAware
05:24AM -30.6350 -53.4170 218° Southwest 432 497 36,000  Level FlightAware
05:25AM -30.7070 -53.4820 218° Southwest 430 495 36,000  Level FlightAware
05:26AM -30.7630 -53.5330 218° Southwest 430 495 36,000  Level FlightAware
05:26AM -30.8330 -53.5970 218° Southwest 432 497 36,000  Level FlightAware
05:27AM -30.9020 -53.6600 218° Southwest 430 495 36,000  Level FlightAware
05:28AM -30.9520 -53.7060 218° Southwest 429 494 36,000  Level FlightAware
05:29AM -31.0360 -53.7830 218° Southwest 427 491 36,000  Level FlightAware
05:29AM -31.0970 -53.8390 218° Southwest 427 491 36,000  Level FlightAware
05:30AM -31.1540 -53.8910 218° Southwest 428 493 36,000  Level FlightAware
05:31AM -31.2100 -53.9430 218° Southwest 36,000  Level FlightAware
05:31AM -31.2790 -54.0060 218° Southwest 427 491 36,000  Level FlightAware
05:32AM -31.3470 -54.0690 218° Southwest 425 489 36,000  Level FlightAware
05:33AM -31.4290 -54.1520 221° Southwest 423 487 36,000  Level FlightAware
05:34AM -31.4780 -54.2040 222° Southwest 423 487 36,000  Level FlightAware
05:34AM -31.5400 -54.2700 222° Southwest 423 487 36,000  Level FlightAware
05:35AM -31.5900 -54.3220 222° Southwest 423 487 36,000  Level FlightAware
05:36AM -31.6390 -54.3740 222° Southwest 423 487 36,000  Level FlightAware
05:36AM -31.6890 -54.4260 222° Southwest 423 487 36,000  Level FlightAware
05:37AM -31.7380 -54.4790 223° Southwest 423 487 36,000  Level FlightAware
05:38AM -31.8000 -54.5440 222° Southwest 423 487 36,000  Level FlightAware
05:39AM -31.8490 -54.5970 223° Southwest 423 487 36,000  Level FlightAware
05:39AM -31.8990 -54.6490 221° Southwest 423 487 36,000  Level FlightAware
05:40AM -31.9480 -54.7020 223° Southwest 423 487 36,000  Level FlightAware
05:41AM -31.9980 -54.7540 221° Southwest 423 487 36,000  Level FlightAware
05:41AM -32.0590 -54.8200 223° Southwest 423 487 36,000  Level FlightAware
05:42AM -32.1090 -54.8720 221° Southwest 423 487 36,000  Level FlightAware
05:45AM -32.1550 -55.1907 260° West  Level Estimated
05:46AM -32.1741 -55.3244 260° West  Level Estimated
05:47AM -32.1931 -55.4583 260° West  Level Estimated
05:48AM -32.2119 -55.5922 261° West  Level Estimated
05:49AM -32.2305 -55.7262 261° West  Level Estimated
05:49AM -32.7270 -55.7150 261° West 422 486 36,000  Level FlightAware
05:50AM -32.8040 -55.8090 226° Southwest 424 488 36,000  Level FlightAware
05:50AM -32.8540 -55.8710 226° Southwest 422 486 36,000  Level FlightAware
05:51AM -32.9370 -55.9740 226° Southwest 423 487 36,000  Level FlightAware
05:52AM -32.9930 -56.0440 226° Southwest 423 487 36,000  Level FlightAware
05:53AM -33.0540 -56.1190 226° Southwest 423 487 36,000  Level FlightAware
05:54AM -33.1060 -56.1830 226° Southwest 423 487 36,000  Level FlightAware
05:54AM -33.1650 -56.2560 226° Southwest 423 487 36,000  Level FlightAware
05:55AM -33.2180 -56.3240 227° Southwest 421 484 36,000  Level FlightAware
05:56AM -33.2790 -56.3990 226° Southwest 420 483 36,000 -600 Level FlightAware
05:57AM -33.3610 -56.5020 226° Southwest 421 484 34,900 -1,260 Descending FlightAware
05:58AM -33.4310 -56.6000 229° Southwest 428 493 33,600 -1,560 Descending FlightAware
05:58AM -33.4840 -56.6740 229° Southwest 434 499 32,600 -1,500 Descending FlightAware
05:59AM -33.5370 -56.7480 229° Southwest 436 502 31,600 -1,500 Descending FlightAware
06:00AM -33.5970 -56.8320 229° Southwest 441 507 30,500 -1,440 Descending FlightAware
06:00AM -33.6500 -56.9060 229° Southwest 448 516 29,600 -1,440 Descending FlightAware
06:01AM -33.7110 -56.9920 230° Southwest 449 517 28,500 -1,500 Descending FlightAware
06:02AM -33.7640 -57.0660 229° Southwest 448 516 27,500 -1,500 Descending FlightAware
06:02AM -33.8250 -57.1520 229° Southwest 430 495 26,400 -1,500 Descending FlightAware
06:03AM -33.8730 -57.2210 230° Southwest 405 466 25,400 -1,500 Descending FlightAware
06:04AM -33.9220 -57.2900 229° Southwest 396 456 24,400 -1,500 Descending FlightAware
06:05AM -33.9740 -57.3650 230° Southwest 391 450 23,300 -1,500 Descending FlightAware
06:05AM -34.0200 -57.4310 230° Southwest 385 443 22,300 -1,560 Descending FlightAware
06:06AM -34.0730 -57.5060 230° Southwest 383 441 21,100 -1,500 Descending FlightAware
06:07AM -34.1340 -57.5930 230° Southwest 383 441 19,800 -1,560 Descending FlightAware
06:08AM -34.1790 -57.6580 230° Southwest 378 435 18,700 -1,920 Descending FlightAware
06:08AM -34.2310 -57.7330 230° Southwest 367 422 17,100 -2,340 Descending FlightAware
06:09AM -34.2760 -57.7900 226° Southwest 330 380 15,400 -2,100 Descending FlightAware
06:10AM -34.3210 -57.8280 215° Southwest 281 323 14,300 -1,740 Descending FlightAware
06:10AM -34.3670 -57.8610 211° Southwest 265 305 13,000 -1,920 Descending FlightAware
06:11AM -34.4110 -57.8920 210° Southwest 281 323 11,600 -1,800 Descending FlightAware
06:12AM -34.4580 -57.9250 210° Southwest 297 342 10,600 -1,380 Descending FlightAware
06:12AM -34.5110 -57.9640 211° Southwest 286 329 9,700 -1,320 Descending FlightAware
06:13AM -34.5380 -57.9820 209° Southwest 260 299 9,100 -1,320 Descending FlightAware
06:13AM -34.5670 -58.0030 211° Southwest 235 270 8,500 -900 Descending FlightAware
06:14AM -34.5910 -58.0210 212° Southwest 224 258 8,300 -660 Descending FlightAware
06:14AM -34.6170 -58.0390 210° Southwest 216 249 7,900 -900 Descending FlightAware
06:15AM -34.6380 -58.0540 210° Southwest 213 245 7,500 -1,020 Descending FlightAware
06:15AM -34.6680 -58.0760 211° Southwest 211 243 6,900 -1,020 Descending FlightAware
06:16AM -34.6880 -58.0900 210° Southwest 211 243 6,500 -1,020 Descending FlightAware
06:16AM -34.7130 -58.1080 211° Southwest 210 242 6,000 -1,080 Descending FlightAware
06:16AM -34.7260 -58.1170 210° Southwest 210 242 5,700 -1,080 Descending FlightAware
06:17AM -34.7460 -58.1320 212° Southwest 208 239 5,300 -900 Descending FlightAware
06:17AM -34.7720 -58.1500 210° Southwest 213 245 4,900 -300 Descending FlightAware
06:18AM -34.7970 -58.1680 211° Southwest 207 238 5,000  Climbing FlightAware
06:18AM -34.8050 -58.1740 212° Southwest 205 236 4,900  Descending FlightAware
06:19AM -34.8270 -58.1900 211° Southwest 185 213 5,000 60 Climbing FlightAware
06:19AM -34.8480 -58.2050 210° Southwest 164 189 5,000 -180 Level FlightAware
06:19AM -34.8570 -58.2150 222° Southwest 161 185 4,900 -480 Descending FlightAware
06:19AM -34.8600 -58.2230 245° Southwest 166 191 4,800 -840 Descending FlightAware
06:20AM -34.8600 -58.2260 270° West 169 194 4,700 -1,440 Descending FlightAware
06:20AM -34.8570 -58.2530 278° West 177 204 4,100 -1,320 Descending FlightAware
06:20AM -34.8540 -58.2760 279° West 181 208 3,600 -1,200 Descending FlightAware
06:21AM -34.8500 -58.3080 279° West 183 211 3,000 -1,200 Descending FlightAware
06:21AM -34.8490 -58.3170 278° West 180 207 2,800 -1,380 Descending FlightAware
06:22AM -34.8450 -58.3520 278° West 165 190 2,000 -900 Descending FlightAware
06:22AM -34.8430 -58.3730 277° West 151 174 1,900  Descending FlightAware
06:23AM -34.8400 -58.3980 278° West 140 161 2,000 -240 Climbing FlightAware
06:23AM -34.8380 -58.4180 277° West 134 154 1,700 -660 Descending FlightAware
06:23AM -34.8350 -58.4380 280° West 135 155 1,400 -720 Descending FlightAware
06:24AM -34.8340 -58.4610 273° West 135 155 1,000 -900 Descending FlightAware
06:24AM -34.8320 -58.4820 277° West 143 165 600 -900 Descending FlightAware
06:25AM -34.8280 -58.5060 281° West 137 158 200 -840 Descending FlightAware
06:27AM -34.8129 -58.7338 275° West  Level Estimated
06:28AM -34.8035 -58.8732 275° West  Level Estimated
06:29AM -34.7938 -59.0126 275° West  Level Estimated
06:30AM -34.7841 -59.1519 275° West  Level Estimated
06:31AM -34.7741 -59.2912 275° West  Level Estimated
06:32AM -34.7640 -59.4305 275° West  Level Estimated
06:33AM -34.7538 -59.5698 275° West  Level Estimated
06:34AM -34.7434 -59.7090 275° West  Level Estimated
06:35AM -34.7328 -59.8481 275° West  Level Estimated
06:36AM -34.7221 -59.9873 275° West  Level Estimated
06:37AM -34.7112 -60.1264 275° West  Level Estimated
06:38AM -34.7002 -60.2654 275° West  Level Estimated
06:39AM -34.6890 -60.4045 276° West  Level Estimated
06:40AM -34.6777 -60.5435 276° West  Level Estimated
06:41AM -34.6661 -60.6824 276° West  Level Estimated
06:42AM -34.6545 -60.8213 276° West  Level Estimated
06:43AM -34.6426 -60.9602 276° West  Level Estimated
06:44AM -34.6307 -61.0990 276° West  Level Estimated
06:45AM -34.6185 -61.2378 276° West  Level Estimated
06:46AM -34.6062 -61.3766 276° West  Level Estimated
06:47AM -34.5938 -61.5153 276° West  Level Estimated
06:48AM -34.5812 -61.6539 276° West  Level Estimated
06:49AM -34.5684 -61.7926 276° West  Level Estimated
06:50AM -34.5555 -61.9312 276° West  Level Estimated
06:51AM -34.5424 -62.0697 277° West  Level Estimated
06:52AM -34.5291 -62.2082 277° West  Level Estimated
06:53AM -34.5158 -62.3467 277° West  Level Estimated
06:54AM -34.5022 -62.4851 277° West  Level Estimated
06:55AM -34.4885 -62.6234 277° West  Level Estimated
06:56AM -34.4746 -62.7617 277° West  Level Estimated
06:57AM -34.4606 -62.9000 277° West  Level Estimated
06:58AM -34.4464 -63.0382 277° West  Level Estimated
06:59AM -34.4321 -63.1764 277° West  Level Estimated
07:00AM -34.4176 -63.3146 277° West  Level Estimated
07:01AM -34.4030 -63.4526 277° West  Level Estimated
07:02AM -34.3882 -63.5907 277° West  Level Estimated
07:03AM -34.3732 -63.7286 277° West  Level Estimated
07:04AM -34.3582 -63.8666 278° West  Level Estimated
07:05AM -34.3429 -64.0045 278° West  Level Estimated
07:06AM -34.3275 -64.1423 278° West  Level Estimated
07:07AM -34.3119 -64.2801 278° West  Level Estimated
07:08AM -34.2962 -64.4178 278° West  Level Estimated
07:09AM -34.2803 -64.5555 278° West  Level Estimated
07:10AM -34.2643 -64.6931 278° West  Level Estimated
07:11AM -34.2481 -64.8307 278° West  Level Estimated
07:12AM -34.2318 -64.9682 278° West  Level Estimated
07:13AM -34.2153 -65.1057 278° West  Level Estimated
07:14AM -34.1986 -65.2431 278° West  Level Estimated
07:15AM -34.1818 -65.3805 278° West  Level Estimated
07:16AM -34.1649 -65.5178 278° West  Level Estimated
07:17AM -34.1478 -65.6550 279° West  Level Estimated
07:18AM -34.1305 -65.7922 279° West  Level Estimated
07:19AM -34.1131 -65.9294 279° West  Level Estimated
07:20AM -34.0956 -66.0664 279° West  Level Estimated
07:21AM -34.0778 -66.2035 279° West  Level Estimated
07:22AM -34.0600 -66.3404 279° West  Level Estimated
07:23AM -34.0420 -66.4773 279° West  Level Estimated
07:24AM -34.0238 -66.6142 279° West  Level Estimated
07:25AM -34.0055 -66.7510 279° West  Level Estimated
07:26AM -33.9870 -66.8877 279° West  Level Estimated
07:27AM -33.9684 -67.0244 279° West  Level Estimated
07:28AM -33.9496 -67.1610 279° West  Level Estimated
07:29AM -33.9307 -67.2975 279° West  Level Estimated
07:30AM -33.9116 -67.4340 280° West  Level Estimated
07:31AM -33.8924 -67.5705 280° West  Level Estimated
07:32AM -33.8730 -67.7068 280° West  Level Estimated
07:33AM -33.8535 -67.8431 280° West  Level Estimated
07:34AM -33.8338 -67.9794 280° West  Level Estimated
07:35AM -33.8139 -68.1156 280° West  Level Estimated
07:36AM -33.7940 -68.2517 280° West  Level Estimated
07:37AM -33.7738 -68.3877 280° West  Level Estimated
07:38AM -33.7536 -68.5237 280° West  Level Estimated
07:39AM -33.7332 -68.6596 280° West  Level Estimated
07:40AM -33.7126 -68.7955 280° West  Level Estimated
07:41AM -33.6919 -68.9313 280° West  Level Estimated
07:42AM -33.6710 -69.0670 280° West  Level Estimated
07:43AM -33.6500 -69.2027 281° West  Level Estimated
07:44AM -33.6288 -69.3383 281° West  Level Estimated
07:45AM -33.6075 -69.4738 281° West  Level Estimated
07:46AM -33.5860 -69.6093 281° West  Level Estimated
07:47AM -33.5644 -69.7447 281° West  Level Estimated
07:48AM -33.5427 -69.8800 281° West  Level Estimated
07:49AM -33.5208 -70.0153 281° West  Level Estimated
07:50AM -33.4987 -70.1504 281° West  Level Estimated
07:51AM -33.4765 -70.2856 281° West  Level Estimated
07:52AM -33.4542 -70.4206 281° West  Level Estimated
07:53AM -33.4317 -70.5556 281° West  Level Estimated